Portsmouth, Virginia - KPWR: 24-hour Summary Portsmouth Weather Records Service - Portsmouth, Virginia



LOCAL CLIMATOLOGICAL DATA: This Month's Data
[updated each morning between 7AM and 9AM]
Station: Portsmouth, Virginia - KPWR Latitude: 36° 48' 04" N Longitude: 76° 19' 37" W Elevation (ground): 13 ft. Time Zone: Eastern

BE SURE TO RELOAD/REFRESH THIS SCREEN FOR DAILY UPDATES BY RIGHT-CLICKING THE BACKGROUND The data in this frame and listed below are final adjusted site data for the time period.

-------------------------------------------------------------------------------------------------------------------------------------------
MONDAY			Temp	Hi	Low	Out	Dew	Wind	Wind	Wind	Hi	Hi	Wind	Heat	THW			Rain	Heat	Cool	In 	In	In 	In 	Wind	Wind	ISS 	Arc.
Date		Time	Out	Temp	Temp	Hum	Pt.	Speed	Dir	Run	Speed	Dir	Chill	Index	Index	Bar  	Rain	Rate	D-D 	D-D 	Temp	Hum	Dew	Heat	Samp	Tx 	Recept	Int.
10/01/18	1:00 a	62.3	63.1	62.3	94	60.6	0.0	---	0.00	0.0	---	62.3	63.0	63.0	30.289	0.00	0.00	0.113	0.000	82.3	38	54.2	81.4	1404	1	100.0	60
10/01/18	2:00 a	61.6	62.3	61.6	95	60.2	0.0	---	0.00	0.0	---	61.6	62.2	62.2	30.284	0.00	0.00	0.142	0.000	81.8	38	53.7	80.8	1405	1	100.0	60
10/01/18	3:00 a	60.9	61.6	60.9	95	59.5	0.0	---	0.00	0.0	---	60.9	61.4	61.4	30.284	0.00	0.00	0.171	0.000	81.3	39	54.0	80.3	1405	1	100.0	60
10/01/18	4:00 a	60.3	60.9	60.3	96	59.2	0.0	---	0.00	0.0	---	60.3	60.8	60.8	30.284	0.00	0.00	0.196	0.000	80.9	39	53.6	79.8	1405	1	100.0	60
10/01/18	5:00 a	59.7	60.3	59.7	96	58.6	0.0	---	0.00	0.0	---	59.7	60.1	60.1	30.291	0.00	0.00	0.221	0.000	80.4	40	53.9	79.4	1405	1	100.0	60
10/01/18	6:00 a	59.4	59.8	59.3	97	58.5	0.0	---	0.00	0.0	---	59.4	59.9	59.9	30.302	0.00	0.00	0.233	0.000	80.0	40	53.5	79.0	1405	1	100.0	60
10/01/18	7:00 a	59.0	59.3	59.0	98	58.4	0.0	---	0.00	0.0	---	59.0	59.5	59.5	30.310	0.00	0.00	0.250	0.000	80.1	40	53.6	79.1	1405	1	100.0	60
10/01/18	8:00 a	59.3	59.3	58.9	98	58.7	0.0	---	0.00	0.0	---	59.3	59.8	59.8	30.320	0.00	0.00	0.238	0.000	80.0	41	54.2	79.1	1404	1	100.0	60
10/01/18	9:00 a	63.7	63.7	59.4	100	63.7	0.0	---	0.00	0.0	---	63.7	64.8	64.8	30.334	0.00	0.00	0.054	0.000	80.7	40	54.1	79.7	1405	1	100.0	60
10/01/18	10:00 a	68.3	68.3	63.7	96	67.1	0.0	SE	0.00	6.0	SSE	68.3	70.4	70.4	30.341	0.00	0.00	0.000	0.138	78.8	43	54.4	78.3	1405	1	100.0	60
10/01/18	11:00 a	74.4	74.4	68.3	73	65.2	0.0	---	0.00	0.0	---	74.4	76.2	76.2	30.337	0.00	0.00	0.000	0.392	80.1	45	56.8	79.7	1405	1	100.0	60
10/01/18	12:00 p	77.0	77.0	74.4	64	63.9	0.0	ENE	0.00	6.0	ENE	77.0	78.2	78.2	30.320	0.00	0.00	0.000	0.500	80.6	43	56.0	80.0	1405	1	100.0	60
10/01/18	1:00 p	79.0	79.0	77.0	61	64.4	0.0	---	0.00	0.0	---	79.0	80.2	80.2	30.304	0.00	0.00	0.000	0.583	82.9	44	58.7	83.2	1405	1	100.0	60
10/01/18	2:00 p	80.6	80.6	79.0	63	66.8	0.0	ENE	0.00	5.0	ENE	80.6	82.6	82.6	30.276	0.00	0.00	0.000	0.650	84.1	38	55.7	84.0	1405	1	100.0	60
10/01/18	3:00 p	81.3	81.3	80.6	59	65.6	0.0	SSW	0.00	6.0	S	81.3	83.0	83.0	30.258	0.00	0.00	0.000	0.679	85.2	43	60.2	85.9	1405	1	100.0	60
10/01/18	4:00 p	81.2	81.3	81.1	58	65.0	0.0	S	0.00	5.0	SSW	81.2	82.7	82.7	30.243	0.00	0.00	0.000	0.675	89.8	42	63.6	91.8	1405	1	100.0	60
10/01/18	5:00 p	80.2	81.3	80.2	62	66.0	0.0	S	0.00	11.0	S	80.2	81.9	81.9	30.232	0.00	0.00	0.000	0.633	87.3	37	57.8	86.9	1405	1	100.0	60
10/01/18	6:00 p	77.7	80.2	77.7	64	64.5	0.0	SE	0.00	6.0	SE	77.7	79.0	79.0	30.233	0.00	0.00	0.000	0.529	87.4	41	60.8	88.0	1405	1	100.0	60
10/01/18	7:00 p	74.7	77.7	74.7	69	63.9	0.0	SSE	0.00	5.0	SSE	74.7	76.3	76.3	30.236	0.00	0.00	0.000	0.404	85.5	33	53.1	84.4	1405	1	100.0	60
10/01/18	8:00 p	71.9	74.6	71.9	75	63.5	0.0	---	0.00	0.0	---	71.9	72.9	72.9	30.243	0.00	0.00	0.000	0.288	88.2	36	57.9	87.4	1405	1	100.0	60
10/01/18	9:00 p	70.2	71.9	70.2	80	63.7	0.0	---	0.00	0.0	---	70.2	71.3	71.3	30.251	0.00	0.00	0.000	0.217	88.0	36	57.7	87.1	1405	1	100.0	60
10/01/18	10:00 p	68.8	70.2	68.7	87	64.8	0.0	---	0.00	0.0	---	68.8	70.6	70.6	30.258	0.00	0.00	0.000	0.158	85.4	35	54.6	84.6	1405	1	100.0	60
10/01/18	11:00 p	68.0	68.8	68.0	90	65.0	0.0	---	0.00	0.0	---	68.0	69.7	69.7	30.261	0.00	0.00	0.000	0.125	85.3	36	55.3	84.7	1405	1	100.0	60
10/02/18	12:00 a	67.1	68.0	67.1	92	64.7	0.0	---	0.00	0.0	---	67.1	68.7	68.7	30.245	0.00	0.00	0.000	0.087	85.1	36	55.1	84.5	1404	1	100.0	60

TUESDAY			Temp	Hi	Low	Out	Dew	Wind	Wind	Wind	Hi	Hi	Wind	Heat	THW			Rain	Heat	Cool	In 	In	In 	In 	Wind	Wind	ISS 	Arc.
Date		Time	Out	Temp	Temp	Hum	Pt.	Speed	Dir	Run	Speed	Dir	Chill	Index	Index	Bar  	Rain	Rate	D-D 	D-D 	Temp	Hum	Dew	Heat	Samp	Tx 	Recept	Int.
10/02/18	1:00 a	66.4	67.1	66.4	93	64.3	0.0	---	0.00	0.0	---	66.4	67.8	67.8	30.236	0.00	0.00	0.000	0.058	84.8	37	55.6	84.4	1404	1	100.0	60
10/02/18	2:00 a	65.8	66.4	65.8	94	64.0	0.0	---	0.00	0.0	---	65.8	67.1	67.1	30.235	0.00	0.00	0.000	0.033	84.4	37	55.3	84.0	1405	1	100.0	60
10/02/18	3:00 a	64.9	65.8	64.9	95	63.4	0.0	---	0.00	0.0	---	64.9	66.1	66.1	30.229	0.00	0.00	0.004	0.000	83.3	36	53.6	82.4	1405	1	100.0	60
10/02/18	4:00 a	64.3	64.9	64.3	95	62.8	0.0	---	0.00	0.0	---	64.3	65.4	65.4	30.223	0.00	0.00	0.029	0.000	82.3	37	53.4	81.3	1405	1	100.0	60
10/02/18	5:00 a	63.8	64.3	63.8	96	62.6	0.0	---	0.00	0.0	---	63.8	64.8	64.8	30.223	0.00	0.00	0.050	0.000	82.1	37	53.2	81.1	1405	1	100.0	60
10/02/18	6:00 a	63.5	63.8	63.5	97	62.6	0.0	---	0.00	0.0	---	63.5	64.5	64.5	30.231	0.00	0.00	0.063	0.000	81.8	38	53.7	80.8	1405	1	100.0	60
10/02/18	7:00 a	63.4	63.5	63.3	98	62.8	0.0	---	0.00	0.0	---	63.4	64.4	64.4	30.237	0.00	0.00	0.067	0.000	81.5	38	53.4	80.4	1405	1	100.0	60
10/02/18	8:00 a	64.8	64.8	63.3	99	64.5	0.0	---	0.00	0.0	---	64.8	66.0	66.0	30.241	0.00	0.00	0.008	0.000	81.5	39	54.2	80.5	1405	1	100.0	60
10/02/18	9:00 a	69.1	69.1	64.8	100	69.1	0.0	---	0.00	0.0	---	69.1	72.1	72.1	30.249	0.00	0.00	0.000	0.171	82.2	40	55.5	81.6	1404	1	100.0	60
10/02/18	10:00 a	73.0	73.0	69.2	96	71.8	0.0	---	0.00	0.0	---	73.0	76.0	76.0	30.244	0.00	0.00	0.000	0.333	79.8	39	52.6	78.7	1406	1	100.0	60
10/02/18	11:00 a	76.7	76.7	73.0	83	71.1	0.0	---	0.00	0.0	---	76.7	80.0	80.0	30.230	0.00	0.00	0.000	0.487	80.4	42	55.2	79.6	1404	1	100.0	60
10/02/18	12:00 p	79.9	79.9	76.7	75	71.3	0.0	---	0.00	0.0	---	79.9	83.4	83.4	30.206	0.00	0.00	0.000	0.621	81.3	37	52.5	80.1	1405	1	100.0	60
10/02/18	1:00 p	82.1	82.1	79.9	70	71.3	0.0	SW	0.00	4.0	SSW	82.1	86.5	86.5	30.179	0.00	0.00	0.000	0.712	83.5	42	58.0	83.8	1405	1	100.0	60
10/02/18	2:00 p	83.6	83.7	82.1	63	69.7	0.0	SW	0.00	11.0	E	83.6	87.7	87.7	30.153	0.00	0.00	0.000	0.775	84.2	36	54.4	83.7	1405	1	100.0	60
10/02/18	3:00 p	83.9	84.0	83.6	63	70.0	0.0	SSW	0.00	13.0	SSW	83.9	88.4	88.4	30.135	0.00	0.00	0.000	0.788	85.7	42	60.0	86.2	1405	1	100.0	60
10/02/18	4:00 p	83.4	84.0	83.4	65	70.4	0.0	SSW	0.00	14.0	WSW	83.4	87.8	87.8	30.114	0.00	0.00	0.000	0.767	88.6	33	55.8	87.2	1405	1	100.0	60
10/02/18	5:00 p	81.9	83.4	81.9	66	69.4	0.0	SSW	0.00	13.0	SSW	81.9	85.2	85.2	30.102	0.00	0.00	0.000	0.704	87.2	38	58.5	87.1	1405	1	100.0	60
10/02/18	6:00 p	80.8	81.8	80.8	68	69.2	0.0	SW	0.00	10.0	S	80.8	83.7	83.7	30.105	0.00	0.00	0.000	0.658	87.3	41	60.7	87.9	1405	1	100.0	60
10/02/18	7:00 p	78.2	80.7	78.2	73	68.8	0.0	SSW	0.00	7.0	SSW	78.2	80.6	80.6	30.093	0.00	0.00	0.000	0.550	85.0	36	55.1	84.4	1405	1	100.0	60
10/02/18	8:00 p	75.6	78.2	75.6	80	69.0	0.0	---	0.00	0.0	---	75.6	78.3	78.3	30.093	0.00	0.00	0.000	0.442	84.5	39	56.8	84.5	1405	1	100.0	60
10/02/18	9:00 p	73.4	75.7	73.4	84	68.3	0.0	---	0.00	0.0	---	73.4	75.5	75.5	30.108	0.00	0.00	0.000	0.350	83.0	38	54.8	82.3	1405	1	100.0	60
10/02/18	10:00 p	72.1	73.4	72.1	87	68.0	0.0	SW	0.00	5.0	SW	72.1	74.1	74.1	30.114	0.00	0.00	0.000	0.296	81.8	39	54.4	80.9	1405	1	100.0	60
10/02/18	11:00 p	71.2	72.1	71.2	91	68.4	0.0	SSW	0.00	6.0	SSW	71.2	73.5	73.5	30.107	0.00	0.00	0.000	0.258	81.6	40	54.9	80.8	1405	1	100.0	60
10/03/18	12:00 a	70.8	71.2	70.8	93	68.7	0.0	SW	0.00	12.0	SW	70.8	73.3	73.3	30.103	0.00	0.00	0.000	0.242	81.4	41	55.4	80.6	1404	1	100.0	60
WEDNESDAY		Temp	Hi	Low	Out	Dew	Wind	Wind	Wind	Hi	Hi	Wind	Heat	THW			Rain	Heat	Cool	In 	In	In 	In 	Wind	Wind	ISS 	Arc.
Date		Time	Out	Temp	Temp	Hum	Pt.	Speed	Dir	Run	Speed	Dir	Chill	Index	Index	Bar  	Rain	Rate	D-D 	D-D 	Temp	Hum	Dew	Heat	Samp	Tx 	Recept	Int.
10/03/18	1:00 a	70.5	70.8	70.5	94	68.7	0.0	W	0.00	7.0	SW	70.5	73.0	73.0	30.095	0.00	0.00	0.000	0.229	79.5	39	52.4	78.5	1403	1	100.0	60
10/03/18	2:00 a	70.1	70.5	70.1	96	68.9	0.0	---	0.00	0.0	---	70.1	72.8	72.8	30.087	0.00	0.00	0.000	0.212	79.7	40	53.2	78.8	1405	1	100.0	60
10/03/18	3:00 a	70.6	70.6	70.1	95	69.1	0.0	SW	0.00	15.0	SSW	70.6	73.2	73.2	30.065	0.00	0.00	0.000	0.233	79.6	41	53.8	78.8	1405	1	100.0	60
10/03/18	4:00 a	70.6	70.7	70.6	95	69.1	0.0	SSW	0.00	13.0	S	70.6	73.2	73.2	30.067	0.00	0.00	0.000	0.233	79.4	42	54.3	78.7	1405	1	100.0	60
10/03/18	5:00 a	69.6	70.6	69.6	96	68.4	0.0	SSW	0.00	7.0	SSW	69.6	72.2	72.2	30.064	0.00	0.00	0.000	0.192	79.2	42	54.1	78.6	1405	1	100.0	60
10/03/18	6:00 a	69.1	69.7	69.1	97	68.2	0.0	---	0.00	0.0	---	69.1	71.7	71.7	30.066	0.00	0.00	0.000	0.171	81.4	37	52.6	80.2	1405	1	100.0	60
10/03/18	7:00 a	68.5	69.1	68.5	98	67.9	0.0	---	0.00	0.0	---	68.5	70.8	70.8	30.066	0.00	0.00	0.000	0.146	82.5	37	53.6	81.6	1405	1	100.0	60
10/03/18	8:00 a	68.8	68.8	68.3	98	68.2	0.0	SW	0.00	11.0	SSW	68.8	71.3	71.3	30.075	0.00	0.00	0.000	0.158	82.8	37	53.9	81.9	1405	1	100.0	60
10/03/18	9:00 a	70.5	70.5	68.8	97	69.6	0.0	SSW	0.00	11.0	SSW	70.5	73.5	73.5	30.076	0.00	0.00	0.000	0.229	83.8	37	54.7	83.4	1405	1	100.0	60
10/03/18	10:00 a	74.5	74.5	70.5	89	71.0	0.0	SSW	0.00	12.0	SW	74.5	77.3	77.3	30.083	0.00	0.00	0.000	0.396	79.9	39	52.7	78.8	1405	1	100.0	60
10/03/18	11:00 a	78.0	78.0	74.5	83	72.4	0.0	WSW	0.00	6.0	WSW	78.0	81.8	81.8	30.068	0.00	0.00	0.000	0.542	82.1	40	55.4	81.4	1405	1	100.0	60
10/03/18	12:00 p	80.5	80.5	78.0	76	72.2	0.0	WNW	0.00	7.0	WNW	80.5	84.7	84.7	30.056	0.00	0.00	0.000	0.646	82.5	39	55.0	81.9	1404	1	100.0	60
10/03/18	1:00 p	82.9	82.9	80.5	71	72.5	0.0	WNW	0.00	7.0	WNW	82.9	88.5	88.5	30.037	0.00	0.00	0.000	0.746	85.0	38	56.5	84.7	1405	1	100.0	60
10/03/18	2:00 p	84.6	84.6	82.9	68	72.9	0.0	NNW	0.00	13.0	NW	84.6	91.4	91.4	30.026	0.00	0.00	0.000	0.817	85.3	39	57.5	85.3	1405	1	100.0	60
10/03/18	3:00 p	85.0	85.0	84.6	62	70.5	0.0	ENE	0.00	13.0	ENE	85.0	90.1	90.1	30.021	0.00	0.00	0.000	0.833	87.0	34	55.2	86.0	1405	1	100.0	60
10/03/18	4:00 p	85.7	85.7	85.0	59	69.7	0.0	NE	0.00	7.0	WNW	85.7	90.5	90.5	30.017	0.00	0.00	0.000	0.862	90.0	38	61.0	90.7	1405	1	100.0	60
10/03/18	5:00 p	85.4	85.7	85.2	60	69.9	0.0	NE	0.00	6.0	NNE	85.4	90.2	90.2	30.011	0.00	0.00	0.000	0.850	88.9	37	59.3	88.8	1405	1	100.0	60
10/03/18	6:00 p	84.3	85.4	84.3	64	70.8	0.0	NE	0.00	7.0	ENE	84.3	89.5	89.5	30.020	0.00	0.00	0.000	0.804	85.8	35	55.0	85.1	1405	1	100.0	60
10/03/18	7:00 p	81.2	84.3	81.2	69	70.1	0.0	NE	0.00	6.0	NE	81.2	84.6	84.6	30.025	0.00	0.00	0.000	0.675	86.0	37	56.7	85.7	1405	1	100.0	60
10/03/18	8:00 p	77.9	81.2	77.9	75	69.3	0.0	---	0.00	0.0	---	77.9	80.5	80.5	30.039	0.00	0.00	0.000	0.538	83.3	36	53.6	82.4	1405	1	100.0	60
10/03/18	9:00 p	75.7	77.9	75.7	81	69.5	0.0	NE	0.00	4.0	NE	75.7	78.6	78.6	30.049	0.00	0.00	0.000	0.446	83.3	37	54.3	82.6	1405	1	100.0	60
10/03/18	10:00 p	74.4	75.7	74.4	87	70.3	0.0	---	0.00	0.0	---	74.4	77.0	77.0	30.053	0.00	0.00	0.000	0.392	83.0	38	54.8	82.3	1405	1	100.0	60
10/03/18	11:00 p	73.9	74.4	73.8	92	71.4	0.0	---	0.00	0.0	---	73.9	76.5	76.5	30.055	0.00	0.00	0.000	0.371	81.6	37	52.8	80.4	1405	1	100.0	60
10/04/18	12:00 a	73.5	73.9	73.5	93	71.4	0.0	---	0.00	0.0	---	73.5	76.2	76.2	30.048	0.00	0.00	0.000	0.354	80.9	38	52.9	79.7	1405	1	100.0	60
THURSDAY		Temp	Hi	Low	Out	Dew	Wind	Wind	Wind	Hi	Hi	Wind	Heat	THW			Rain	Heat	Cool	In 	In	In 	In 	Wind	Wind	ISS 	Arc.
Date		Time	Out	Temp	Temp	Hum	Pt.	Speed	Dir	Run	Speed	Dir	Chill	Index	Index	Bar  	Rain	Rate	D-D 	D-D 	Temp	Hum	Dew	Heat	Samp	Tx 	Recept	Int.
10/04/18	1:00 a	72.5	73.5	72.5	94	70.7	0.0	---	0.00	0.0	---	72.5	75.2	75.2	30.040	0.00	0.00	0.000	0.313	80.9	39	53.6	79.8	1403	1	100.0	60
10/04/18	2:00 a	71.5	72.5	71.5	95	70.0	0.0	---	0.00	0.0	---	71.5	74.3	74.3	30.033	0.00	0.00	0.000	0.271	80.7	40	54.1	79.7	1406	1	100.0	60
10/04/18	3:00 a	70.6	71.5	70.6	96	69.4	0.0	---	0.00	0.0	---	70.6	73.4	73.4	30.017	0.00	0.00	0.000	0.233	80.3	40	53.8	79.3	1404	1	100.0	60
10/04/18	4:00 a	70.1	70.6	70.1	97	69.2	0.0	---	0.00	0.0	---	70.1	73.0	73.0	30.010	0.00	0.00	0.000	0.212	78.4	39	51.4	77.5	1405	1	100.0	60
10/04/18	5:00 a	69.9	70.1	69.9	97	69.0	0.0	---	0.00	0.0	---	69.9	72.8	72.8	30.019	0.00	0.00	0.000	0.204	78.6	40	52.3	77.8	1405	1	100.0	60
10/04/18	6:00 a	69.3	69.9	69.3	98	68.7	0.0	---	0.00	0.0	---	69.3	72.1	72.1	30.034	0.00	0.00	0.000	0.179	81.8	38	53.7	80.8	1405	1	100.0	60
10/04/18	7:00 a	68.9	69.3	68.9	98	68.3	0.0	---	0.00	0.0	---	68.9	71.5	71.5	30.047	0.00	0.00	0.000	0.163	83.5	36	53.7	82.7	1405	1	100.0	60
10/04/18	8:00 a	69.0	69.0	68.8	99	68.7	0.0	---	0.00	0.0	---	69.0	71.8	71.8	30.049	0.00	0.00	0.000	0.167	83.8	37	54.7	83.4	1405	1	100.0	60
10/04/18	9:00 a	71.5	71.5	69.0	100	71.5	0.0	SSW	0.00	5.0	SSW	71.5	75.1	75.1	30.052	0.00	0.00	0.000	0.271	83.5	35	53.0	82.6	1405	1	100.0	60
10/04/18	10:00 a	74.6	74.6	71.5	97	73.7	0.0	SW	0.00	4.0	SW	74.6	78.1	78.1	30.054	0.00	0.00	0.000	0.400	82.1	38	54.0	81.2	1405	1	100.0	60
10/04/18	11:00 a	79.8	79.8	74.6	84	74.5	0.0	SW	0.00	5.0	WNW	79.8	85.0	85.0	30.046	0.00	0.00	0.000	0.617	82.3	36	52.7	81.2	1405	1	100.0	60
10/04/18	12:00 p	83.5	83.5	79.8	75	74.7	0.0	WNW	0.00	7.0	WSW	83.5	91.4	91.4	30.037	0.00	0.00	0.000	0.771	83.6	39	56.0	83.5	1405	1	100.0	60
10/04/18	1:00 p	85.6	85.6	83.5	65	72.5	0.0	SW	0.00	12.0	WSW	85.6	92.5	92.5	30.014	0.00	0.00	0.000	0.858	85.9	36	55.8	85.4	1405	1	100.0	60
10/04/18	2:00 p	87.0	87.0	85.6	65	73.8	0.0	WSW	0.00	11.0	SSW	87.0	95.6	95.6	29.985	0.00	0.00	0.000	0.917	86.0	40	58.9	86.2	1405	1	100.0	60
10/04/18	3:00 p	87.8	87.9	87.0	63	73.6	0.0	WNW	0.00	15.0	WSW	87.8	95.8	95.8	29.966	0.00	0.00	0.000	0.950	88.6	35	57.4	87.7	1405	1	100.0	60
10/04/18	4:00 p	87.9	88.0	87.8	62	73.3	0.0	S	0.00	7.0	ESE	87.9	95.5	95.5	29.956	0.00	0.00	0.000	0.954	90.7	36	60.1	91.1	1404	1	100.0	60
10/04/18	5:00 p	88.4	88.4	87.9	61	73.2	0.0	SSW	0.00	4.0	SSW	88.4	96.3	96.3	29.951	0.00	0.00	0.000	0.975	90.7	32	56.8	90.2	1405	1	100.0	60
10/04/18	6:00 p	87.0	88.4	87.0	63	72.9	0.0	WNW	0.00	10.0	WNW	87.0	94.8	94.8	29.948	0.00	0.00	0.000	0.917	88.5	34	56.6	87.3	1405	1	100.0	60
10/04/18	7:00 p	83.9	87.0	83.9	69	72.6	0.0	WSW	0.00	6.0	SW	83.9	90.3	90.3	29.956	0.00	0.00	0.000	0.788	88.5	38	59.7	88.5	1405	1	100.0	60
10/04/18	8:00 p	80.8	83.9	80.8	76	72.5	0.0	---	0.00	0.0	---	80.8	85.3	85.3	29.962	0.00	0.00	0.000	0.658	85.7	37	56.4	85.3	1405	1	100.0	60
10/04/18	9:00 p	78.5	80.8	78.5	81	72.2	0.0	---	0.00	0.0	---	78.5	82.3	82.3	29.974	0.00	0.00	0.000	0.563	84.9	36	55.0	84.3	1405	1	100.0	60
10/04/18	10:00 p	77.0	78.5	77.0	85	72.1	0.0	---	0.00	0.0	---	77.0	80.6	80.6	29.975	0.00	0.00	0.000	0.500	83.7	37	54.7	83.2	1405	1	100.0	60
10/04/18	11:00 p	75.8	77.0	75.7	88	72.0	0.0	---	0.00	0.0	---	75.8	79.2	79.2	29.984	0.00	0.00	0.000	0.450	83.6	38	55.3	83.3	1405	1	100.0	60
10/05/18	12:00 a	74.6	75.7	74.6	90	71.5	0.0	SW	0.00	6.0	SW	74.6	77.6	77.6	29.981	0.00	0.00	0.000	0.400	81.4	36	51.9	80.1	1405	1	100.0	60
FRIDAY			Temp	Hi	Low	Out	Dew	Wind	Wind	Wind	Hi	Hi	Wind	Heat	THW			Rain	Heat	Cool	In 	In	In 	In 	Wind	Wind	ISS 	Arc.
Date		Time	Out	Temp	Temp	Hum	Pt.	Speed	Dir	Run	Speed	Dir	Chill	Index	Index	Bar  	Rain	Rate	D-D 	D-D 	Temp	Hum	Dew	Heat	Samp	Tx 	Recept	Int.
10/05/18	1:00 a	73.9	74.6	73.9	92	71.4	0.0	---	0.00	0.0	---	73.9	76.5	76.5	29.966	0.00	0.00	0.000	0.371	81.6	38	53.5	80.6	1404	1	100.0	60
10/05/18	2:00 a	73.8	73.9	73.8	93	71.6	0.0	---	0.00	0.0	---	73.8	76.5	76.5	29.954	0.00	0.00	0.000	0.367	81.5	39	54.2	80.5	1405	1	100.0	60
10/05/18	3:00 a	73.6	73.9	73.6	93	71.4	0.0	---	0.00	0.0	---	73.6	76.3	76.3	29.943	0.00	0.00	0.000	0.358	81.4	39	54.1	80.4	1405	1	100.0	60
10/05/18	4:00 a	72.8	73.6	72.8	94	71.0	0.0	---	0.00	0.0	---	72.8	75.5	75.5	29.949	0.00	0.00	0.000	0.325	79.7	38	51.8	78.6	1404	1	100.0	60
10/05/18	5:00 a	72.3	72.8	72.3	95	70.8	0.0	S	0.00	4.0	S	72.3	75.1	75.1	29.956	0.00	0.00	0.000	0.304	79.8	39	52.6	78.7	1405	1	100.0	60
10/05/18	6:00 a	71.7	72.3	71.7	95	70.2	0.0	---	0.00	0.0	---	71.7	74.5	74.5	29.975	0.00	0.00	0.000	0.279	84.0	36	54.2	83.5	1405	1	100.0	60
10/05/18	7:00 a	71.1	71.7	71.1	96	69.9	0.0	---	0.00	0.0	---	71.1	74.0	74.0	29.995	0.00	0.00	0.000	0.254	84.8	36	54.9	84.2	1405	1	100.0	60
10/05/18	8:00 a	71.0	71.1	70.8	97	70.1	0.0	---	0.00	0.0	---	71.0	74.1	74.1	30.010	0.00	0.00	0.000	0.250	83.3	34	52.0	82.1	1405	1	100.0	60
10/05/18	9:00 a	73.3	73.3	71.1	96	72.1	0.0	SW	0.00	6.0	SW	73.3	76.3	76.3	30.027	0.00	0.00	0.000	0.346	84.6	35	53.9	83.8	1405	1	100.0	60
10/05/18	10:00 a	78.0	78.0	73.3	89	74.5	0.0	NE	0.00	7.0	NE	78.0	82.7	82.7	30.024	0.00	0.00	0.000	0.542	84.8	33	52.5	83.6	1405	1	100.0	60
10/05/18	11:00 a	82.3	82.3	78.0	82	76.3	0.0	NE	0.00	5.0	NE	82.3	90.3	90.3	30.018	0.00	0.00	0.000	0.721	87.7	34	55.9	86.4	1405	1	100.0	60
10/05/18	12:00 p	86.2	86.2	82.3	73	76.5	0.0	NNW	0.00	7.0	NNW	86.2	96.8	96.8	30.012	0.00	0.00	0.000	0.883	87.5	33	54.9	86.1	1405	1	100.0	60
10/05/18	1:00 p	85.4	86.3	85.4	75	76.6	4.0	NW	4.00	15.0	NW	85.4	95.6	95.6	30.012	0.00	0.00	0.000	0.850	90.7	33	57.6	90.4	1405	1	100.0	60
10/05/18	2:00 p	83.9	85.6	83.9	80	77.1	4.0	NE	4.00	18.0	NNE	83.9	94.2	94.2	30.018	0.00	0.00	0.000	0.788	89.5	34	57.4	88.9	1405	1	100.0	60
10/05/18	3:00 p	82.4	83.8	82.1	82	76.3	4.0	ENE	4.00	17.0	ENE	82.4	90.6	90.6	30.015	0.00	0.00	0.000	0.725	90.4	33	57.4	90.0	1405	1	100.0	60
10/05/18	4:00 p	80.4	82.4	80.4	84	75.1	0.0	ENE	0.00	17.0	NNE	80.4	86.2	86.2	30.018	0.00	0.00	0.000	0.642	90.1	35	58.8	90.0	1405	1	100.0	60
10/05/18	5:00 p	78.4	80.5	78.4	87	74.2	0.0	NE	0.00	16.0	ENE	78.4	83.1	83.1	30.030	0.00	0.00	0.000	0.558	88.2	33	55.5	86.6	1405	1	100.0	60
10/05/18	6:00 p	77.0	78.4	77.0	90	73.8	0.0	NE	0.00	14.0	NE	77.0	81.0	81.0	30.049	0.00	0.00	0.000	0.500	88.8	36	58.4	88.3	1405	1	100.0	60
10/05/18	7:00 p	76.0	77.0	76.0	91	73.2	0.0	NE	0.00	10.0	ENE	76.0	79.6	79.6	30.069	0.00	0.00	0.000	0.458	86.9	34	55.2	85.9	1404	1	100.0	60
10/05/18	8:00 p	75.8	76.1	75.8	91	73.0	0.0	ENE	0.00	5.0	NE	75.8	79.4	79.4	30.080	0.00	0.00	0.000	0.450	87.4	36	57.2	86.7	1405	1	100.0	60
10/05/18	9:00 p	75.5	75.9	75.5	91	72.7	0.0	ENE	0.00	5.0	E	75.5	79.0	79.0	30.088	0.00	0.00	0.000	0.438	85.7	35	54.9	85.0	1405	1	100.0	60
10/05/18	10:00 p	75.5	75.5	75.4	91	72.7	0.0	ENE	0.00	4.0	ENE	75.5	79.0	79.0	30.101	0.00	0.00	0.000	0.438	86.2	36	56.1	85.7	1405	1	100.0	60
10/05/18	11:00 p	75.1	75.5	75.1	92	72.6	0.0	ENE	0.00	4.0	ENE	75.1	78.6	78.6	30.099	0.00	0.00	0.000	0.421	84.7	34	53.2	83.7	1405	1	100.0	60
10/06/18	12:00 a	75.0	75.1	74.9	90	71.9	0.0	NE	0.00	4.0	NE	75.0	78.4	78.4	30.092	0.00	0.00	0.000	0.417	85.5	36	55.5	84.9	1405	1	100.0	60
SATURDAY		Temp	Hi	Low	Out	Dew	Wind	Wind	Wind	Hi	Hi	Wind	Heat	THW			Rain	Heat	Cool	In 	In	In 	In 	Wind	Wind	ISS 	Arc.
Date		Time	Out	Temp	Temp	Hum	Pt.	Speed	Dir	Run	Speed	Dir	Chill	Index	Index	Bar  	Rain	Rate	D-D 	D-D 	Temp	Hum	Dew	Heat	Samp	Tx 	Recept	Int.
10/06/18	1:00 a	74.8	74.9	74.8	91	72.0	0.0	---	0.00	0.0	---	74.8	78.1	78.1	30.083	0.00	0.00	0.000	0.408	85.7	36	55.7	85.1	1404	1	100.0	60
10/06/18	2:00 a	74.4	74.8	74.4	93	72.2	0.0	---	0.00	0.0	---	74.4	77.5	77.5	30.091	0.00	0.00	0.000	0.392	83.9	34	52.5	83.0	1405	1	100.0	60
10/06/18	3:00 a	74.0	74.4	74.0	94	72.2	0.0	---	0.00	0.0	---	74.0	76.9	76.9	30.082	0.00	0.00	0.000	0.375	84.5	36	54.6	83.9	1405	1	100.0	60
10/06/18	4:00 a	73.5	74.0	73.5	93	71.4	0.0	NNE	0.00	4.0	NNE	73.5	76.2	76.2	30.085	0.00	0.00	0.000	0.354	84.8	36	54.9	84.2	1405	1	100.0	60
10/06/18	5:00 a	73.9	73.9	73.5	91	71.1	0.0	---	0.00	0.0	---	73.9	76.4	76.4	30.100	0.00	0.00	0.000	0.371	84.7	37	55.5	84.3	1405	1	100.0	60
10/06/18	6:00 a	73.7	74.0	73.7	92	71.2	0.0	---	0.00	0.0	---	73.7	76.3	76.3	30.113	0.00	0.00	0.000	0.362	83.4	36	53.6	82.6	1405	1	100.0	60
10/06/18	7:00 a	73.4	73.7	73.4	93	71.3	0.0	---	0.00	0.0	---	73.4	76.1	76.1	30.127	0.00	0.00	0.000	0.350	83.7	37	54.7	83.2	1404	1	100.0	60
10/06/18	8:00 a	73.7	73.7	73.4	90	70.6	0.0	---	0.00	0.0	---	73.7	76.1	76.1	30.137	0.00	0.00	0.000	0.362	82.6	35	52.2	81.4	1406	1	100.0	60
10/06/18	9:00 a	75.5	75.5	73.7	91	72.7	0.0	NW	0.00	4.0	NW	75.5	79.0	79.0	30.147	0.00	0.00	0.000	0.438	83.8	36	54.0	83.2	1404	1	100.0	60
10/06/18	10:00 a	76.8	77.0	75.5	85	71.9	0.0	ENE	0.00	6.0	NNW	76.8	80.3	80.3	30.157	0.00	0.00	0.000	0.492	84.6	34	53.1	83.6	1405	1	100.0	60
10/06/18	11:00 a	78.5	78.5	76.8	82	72.5	0.0	ENE	0.00	14.0	ENE	78.5	82.4	82.4	30.154	0.00	0.00	0.000	0.563	86.8	35	55.9	86.0	1405	1	100.0	60
10/06/18	12:00 p	78.9	78.9	78.3	80	72.2	0.0	ENE	0.00	14.0	ENE	78.9	82.7	82.7	30.160	0.00	0.00	0.000	0.579	86.8	33	54.2	85.6	1405	1	100.0	60
10/06/18	1:00 p	79.7	79.7	78.9	78	72.2	0.0	NE	0.00	4.0	NE	79.7	83.6	83.6	30.156	0.00	0.00	0.000	0.612	87.3	36	57.1	86.6	1405	1	100.0	60
10/06/18	2:00 p	80.8	80.8	79.7	75	72.1	0.0	NE	0.00	4.0	NE	80.8	85.0	85.0	30.142	0.00	0.00	0.000	0.658	87.8	34	55.9	86.5	1405	1	100.0	60
10/06/18	3:00 p	80.5	80.9	80.3	76	72.2	0.0	NE	0.00	5.0	S	80.5	84.7	84.7	30.136	0.00	0.00	0.000	0.646	88.5	36	58.1	87.9	1405	1	100.0	60
10/06/18	4:00 p	81.3	81.3	80.3	73	71.8	0.0	ENE	0.00	10.0	ENE	81.3	85.6	85.6	30.129	0.00	0.00	0.000	0.679	90.3	32	56.4	89.7	1405	1	100.0	60
10/06/18	5:00 p	81.1	81.6	81.0	77	73.2	0.0	NE	0.00	5.0	NE	81.1	86.1	86.1	30.132	0.00	0.00	0.000	0.671	89.5	35	58.2	89.1	1405	1	100.0	60
10/06/18	6:00 p	79.1	81.1	79.1	81	72.8	0.0	E	0.00	4.0	ESE	79.1	83.2	83.2	30.139	0.00	0.00	0.000	0.587	88.9	33	56.1	87.6	1405	1	100.0	60
10/06/18	7:00 p	77.1	79.1	77.1	85	72.2	0.0	ENE	0.00	4.0	ENE	77.1	80.7	80.7	30.147	0.00	0.00	0.000	0.504	86.5	33	54.0	85.4	1405	1	100.0	60
10/06/18	8:00 p	75.2	77.1	75.2	89	71.7	0.0	---	0.00	0.0	---	75.2	78.5	78.5	30.150	0.00	0.00	0.000	0.425	86.8	34	55.1	85.8	1405	1	100.0	60
10/06/18	9:00 p	73.9	75.2	73.9	92	71.4	0.0	ENE	0.00	4.0	ENE	73.9	76.5	76.5	30.156	0.00	0.00	0.000	0.371	84.8	33	52.5	83.6	1405	1	100.0	60
10/06/18	10:00 p	72.8	73.9	72.8	93	70.7	0.0	---	0.00	0.0	---	72.8	75.5	75.5	30.166	0.00	0.00	0.000	0.325	85.0	34	53.5	84.0	1404	1	100.0	60
10/06/18	11:00 p	71.9	72.8	71.9	93	69.8	0.0	---	0.00	0.0	---	71.9	74.5	74.5	30.163	0.00	0.00	0.000	0.288	83.1	33	51.0	81.6	1405	1	100.0	60
10/07/18	12:00 a	70.7	71.9	70.7	94	68.9	0.0	---	0.00	0.0	---	70.7	73.2	73.2	30.158	0.00	0.00	0.000	0.237	83.5	34	52.2	82.4	1405	1	100.0	60
SUNDAY			Temp	Hi	Low	Out	Dew	Wind	Wind	Wind	Hi	Hi	Wind	Heat	THW			Rain	Heat	Cool	In 	In	In 	In 	Wind	Wind	ISS 	Arc.
Date		Time	Out	Temp	Temp	Hum	Pt.	Speed	Dir	Run	Speed	Dir	Chill	Index	Index	Bar  	Rain	Rate	D-D 	D-D 	Temp	Hum	Dew	Heat	Samp	Tx 	Recept	Int.
10/07/18	1:00 a	69.7	70.8	69.7	95	68.2	0.0	---	0.00	0.0	---	69.7	72.1	72.1	30.159	0.00	0.00	0.000	0.196	79.3	39	52.2	78.4	1404	1	100.0	60
10/07/18	2:00 a	69.0	69.8	69.0	96	67.8	0.0	---	0.00	0.0	---	69.0	71.4	71.4	30.170	0.00	0.00	0.000	0.167	78.7	40	52.3	77.9	1405	1	100.0	60
10/07/18	3:00 a	68.4	69.0	68.4	97	67.5	0.0	---	0.00	0.0	---	68.4	70.6	70.6	30.166	0.00	0.00	0.000	0.142	78.4	41	52.7	77.6	1405	1	100.0	60
10/07/18	4:00 a	68.0	68.4	68.0	97	67.1	0.0	---	0.00	0.0	---	68.0	69.9	69.9	30.158	0.00	0.00	0.000	0.125	78.1	42	53.1	77.4	1405	1	100.0	60
10/07/18	5:00 a	67.5	68.0	67.5	97	66.6	0.0	---	0.00	0.0	---	67.5	69.3	69.3	30.163	0.00	0.00	0.000	0.104	77.9	42	53.0	77.2	1405	1	100.0	60
10/07/18	6:00 a	67.0	67.5	67.0	97	66.1	0.0	---	0.00	0.0	---	67.0	68.7	68.7	30.180	0.00	0.00	0.000	0.083	77.6	43	53.3	77.0	1405	1	100.0	60
10/07/18	7:00 a	66.7	67.0	66.7	98	66.1	0.0	---	0.00	0.0	---	66.7	68.3	68.3	30.184	0.00	0.00	0.000	0.071	81.4	39	54.1	80.4	1405	1	100.0	60
10/07/18	8:00 a	67.1	67.1	66.6	98	66.5	0.0	---	0.00	0.0	---	67.1	68.8	68.8	30.189	0.00	0.00	0.000	0.087	80.4	36	51.0	79.0	1405	1	100.0	60
10/07/18	9:00 a	71.8	71.8	67.1	100	71.8	0.0	---	0.00	0.0	---	71.8	75.4	75.4	30.203	0.00	0.00	0.000	0.283	82.1	36	52.5	80.9	1405	1	100.0	60
10/07/18	10:00 a	75.7	75.7	71.8	97	74.8	0.0	ENE	0.00	4.0	ENE	75.7	79.7	79.7	30.214	0.00	0.00	0.000	0.446	84.0	35	53.4	83.3	1404	1	100.0	60
10/07/18	11:00 a	79.3	79.3	75.7	82	73.3	0.0	NE	0.00	4.0	ENE	79.3	83.7	83.7	30.217	0.00	0.00	0.000	0.596	85.0	36	55.1	84.4	1406	1	100.0	60
10/07/18	12:00 p	82.4	82.4	79.3	78	74.8	0.0	NE	0.00	7.0	NE	82.4	89.4	89.4	30.215	0.00	0.00	0.000	0.725	81.6	38	53.5	80.6	1404	1	100.0	60
10/07/18	1:00 p	84.0	84.3	82.3	74	74.8	0.0	ENE	0.00	12.0	WNW	84.0	92.3	92.3	30.203	0.00	0.00	0.000	0.792	84.6	40	57.6	84.8	1405	1	100.0	60
10/07/18	2:00 p	84.4	84.4	83.7	71	74.0	0.0	ENE	0.00	12.0	NE	84.4	92.1	92.1	30.184	0.00	0.00	0.000	0.808	83.4	38	55.1	83.0	1405	1	100.0	60
10/07/18	3:00 p	85.4	85.4	84.4	74	76.2	0.0	NE	0.00	10.0	ENE	85.4	95.2	95.2	30.177	0.00	0.00	0.000	0.850	86.1	41	59.6	86.5	1405	1	100.0	60
10/07/18	4:00 p	84.6	85.6	84.6	76	76.2	0.0	NE	0.00	10.0	NE	84.6	94.2	94.2	30.173	0.00	0.00	0.000	0.817	84.2	39	56.6	84.3	1405	1	100.0	60
10/07/18	5:00 p	84.5	84.8	84.4	77	76.5	0.0	SE	0.00	11.0	SSW	84.5	94.4	94.4	30.177	0.00	0.00	0.000	0.813	86.0	41	59.6	86.4	1405	1	100.0	60
10/07/18	6:00 p	82.7	84.6	82.7	79	75.5	0.0	SE	0.00	7.0	SE	82.7	90.6	90.6	30.183	0.00	0.00	0.000	0.737	84.1	38	55.7	84.0	1405	1	100.0	60
10/07/18	7:00 p	79.6	82.6	79.6	84	74.3	0.0	E	0.00	14.0	SSW	79.6	84.6	84.6	30.191	0.00	0.00	0.000	0.608	82.8	38	54.6	82.1	1405	1	100.0	60
10/07/18	8:00 p	77.2	79.6	77.2	88	73.4	0.0	NE	0.00	4.0	SE	77.2	81.2	81.2	30.203	0.00	0.00	0.000	0.508	82.7	37	53.8	81.8	1405	1	100.0	60
10/07/18	9:00 p	75.6	77.2	75.6	91	72.8	0.0	---	0.00	0.0	---	75.6	79.1	79.1	30.212	0.00	0.00	0.000	0.442	81.0	38	53.0	79.8	1405	1	100.0	60
10/07/18	10:00 p	74.2	75.6	74.2	93	72.0	0.0	---	0.00	0.0	---	74.2	77.1	77.1	30.218	0.00	0.00	0.000	0.383	81.1	39	53.8	80.0	1405	1	100.0	60
10/07/18	11:00 p	73.4	74.2	73.3	95	71.9	0.0	---	0.00	0.0	---	73.4	76.3	76.3	30.226	0.00	0.00	0.000	0.350	83.0	35	52.5	81.8	1405	1	100.0	60
10/08/18	12:00 a	72.7	73.3	72.7	96	71.5	0.0	---	0.00	0.0	---	72.7	75.7	75.7	30.226	0.00	0.00	0.000	0.321	84.3	35	53.7	83.6	1405	1	100.0	60
MONDAY			Temp	Hi	Low	Out	Dew	Wind	Wind	Wind	Hi	Hi	Wind	Heat	THW			Rain	Heat	Cool	In 	In	In 	In 	Wind	Wind	ISS 	Arc.
Date		Time	Out	Temp	Temp	Hum	Pt.	Speed	Dir	Run	Speed	Dir	Chill	Index	Index	Bar  	Rain	Rate	D-D 	D-D 	Temp	Hum	Dew	Heat	Samp	Tx 	Recept	Int.
10/08/18	1:00 a	71.9	72.7	71.9	97	71.0	0.0	---	0.00	0.0	---	71.9	75.0	75.0	30.227	0.00	0.00	0.000	0.288	84.3	35	53.7	83.6	1403	1	100.0	60
10/08/18	2:00 a	71.5	71.9	71.5	97	70.6	0.0	---	0.00	0.0	---	71.5	74.6	74.6	30.236	0.00	0.00	0.000	0.271	84.2	36	54.4	83.7	1405	1	100.0	60
10/08/18	3:00 a	71.2	71.5	71.1	98	70.6	0.0	---	0.00	0.0	---	71.2	74.5	74.5	30.233	0.00	0.00	0.000	0.258	84.0	36	54.2	83.5	1405	1	100.0	60
10/08/18	4:00 a	70.6	71.2	70.6	98	70.0	0.0	---	0.00	0.0	---	70.6	73.8	73.8	30.239	0.00	0.00	0.000	0.233	83.8	36	54.0	83.2	1405	1	100.0	60
10/08/18	5:00 a	70.1	70.6	70.1	99	69.8	0.0	---	0.00	0.0	---	70.1	73.4	73.4	30.248	0.00	0.00	0.000	0.212	83.6	37	54.6	83.1	1405	1	100.0	60
10/08/18	6:00 a	69.5	70.1	69.5	98	68.9	0.0	---	0.00	0.0	---	69.5	72.4	72.4	30.257	0.00	0.00	0.000	0.188	82.2	34	51.0	80.8	1405	1	100.0	60
10/08/18	7:00 a	69.1	69.5	69.1	99	68.8	0.0	---	0.00	0.0	---	69.1	71.9	71.9	30.259	0.00	0.00	0.000	0.171	82.7	35	52.3	81.5	1405	1	100.0	60
10/08/18	8:00 a	69.7	69.7	69.1	100	69.7	0.0	---	0.00	0.0	---	69.7	73.0	73.0	30.275	0.00	0.00	0.000	0.196	82.8	36	53.1	81.7	1405	1	100.0	60
10/08/18	9:00 a	73.7	73.7	69.7	100	73.7	0.0	NE	0.00	4.0	NE	73.7	77.3	77.3	30.293	0.00	0.00	0.000	0.362	83.9	36	54.1	83.3	1405	1	100.0	60
10/08/18	10:00 a	77.3	77.3	73.7	92	74.8	0.0	NE	0.00	13.0	SSW	77.3	81.8	81.8	30.293	0.00	0.00	0.000	0.513	84.9	33	52.6	83.7	1405	1	100.0	60
10/08/18	11:00 a	80.9	80.9	77.3	78	73.4	0.0	NE	0.00	11.0	NNE	80.9	85.9	85.9	30.302	0.00	0.00	0.000	0.663	85.7	35	54.9	85.0	1405	1	100.0	60
10/08/18	12:00 p	82.7	82.7	80.9	78	75.1	0.0	SE	0.00	17.0	S	82.7	90.2	90.2	30.311	0.00	0.00	0.000	0.737	87.0	33	54.4	85.8	1405	1	100.0	60
10/08/18	1:00 p	83.7	83.7	82.7	74	74.5	0.0	S	0.00	13.0	S	83.7	91.6	91.6	30.297	0.00	0.00	0.000	0.779	86.8	35	55.9	86.0	1404	1	100.0	60
10/08/18	2:00 p	84.1	84.1	83.7	75	75.3	0.0	NE	0.00	11.0	SSE	84.1	92.9	92.9	30.275	0.00	0.00	0.000	0.796	88.8	37	59.2	88.6	1405	1	100.0	60
10/08/18	3:00 p	84.0	84.2	83.8	73	74.4	0.0	NE	0.00	17.0	S	84.0	92.0	92.0	30.262	0.00	0.00	0.000	0.792	88.4	34	56.5	87.2	1406	1	100.0	60
10/08/18	4:00 p	82.9	84.0	82.6	75	74.2	0.0	SE	0.00	11.0	SE	82.9	89.8	89.8	30.267	0.00	0.00	0.000	0.746	91.0	36	60.3	91.5	1404	1	100.0	60
10/08/18	5:00 p	82.4	83.1	82.4	77	74.5	0.0	NE	0.00	14.0	NE	82.4	89.1	89.1	30.267	0.00	0.00	0.000	0.725	89.2	29	52.8	87.2	1405	1	100.0	60
10/08/18	6:00 p	80.2	82.4	80.2	81	73.8	0.0	NE	0.00	12.0	ENE	80.2	85.1	85.1	30.275	0.00	0.00	0.000	0.633	89.7	35	58.4	89.4	1405	1	100.0	60
10/08/18	7:00 p	78.1	80.2	78.1	86	73.6	0.0	NE	0.00	14.0	NNE	78.1	82.4	82.4	30.285	0.00	0.00	0.000	0.546	89.7	36	59.2	89.7	1405	1	100.0	60
10/08/18	8:00 p	76.6	78.1	76.6	90	73.4	0.0	NE	0.00	10.0	NE	76.6	80.4	80.4	30.285	0.00	0.00	0.000	0.483	86.8	34	55.1	85.8	1405	1	100.0	60
10/08/18	9:00 p	75.7	76.6	75.7	93	73.5	0.0	SSE	0.00	6.0	SSE	75.7	79.4	79.4	30.294	0.00	0.00	0.000	0.446	86.9	35	56.0	86.1	1405	1	100.0	60
10/08/18	10:00 p	74.8	75.7	74.8	94	73.0	0.0	NE	0.00	5.0	ENE	74.8	78.3	78.3	30.300	0.00	0.00	0.000	0.408	85.0	34	53.5	84.0	1405	1	100.0	60
10/08/18	11:00 p	73.9	74.8	73.9	96	72.7	0.0	---	0.00	0.0	---	73.9	77.0	77.0	30.304	0.00	0.00	0.000	0.371	85.3	35	54.5	84.5	1405	1	100.0	60
10/09/18	12:00 a	73.5	73.9	73.5	96	72.3	0.0	---	0.00	0.0	---	73.5	76.5	76.5	30.298	0.00	0.00	0.000	0.354	85.3	35	54.5	84.5	1406	1	100.0	60
TUESDAY			Temp	Hi	Low	Out	Dew	Wind	Wind	Wind	Hi	Hi	Wind	Heat	THW			Rain	Heat	Cool	In 	In	In 	In 	Wind	Wind	ISS 	Arc.
Date		Time	Out	Temp	Temp	Hum	Pt.	Speed	Dir	Run	Speed	Dir	Chill	Index	Index	Bar  	Rain	Rate	D-D 	D-D 	Temp	Hum	Dew	Heat	Samp	Tx 	Recept	Int.
10/09/18	1:00 a	73.1	73.5	73.1	97	72.2	0.0	NE	0.00	4.0	NE	73.1	76.2	76.2	30.290	0.00	0.00	0.000	0.337	83.7	34	52.3	82.7	1402	1	100.0	60
10/09/18	2:00 a	72.2	73.1	72.2	97	71.3	0.0	---	0.00	0.0	---	72.2	75.3	75.3	30.284	0.00	0.00	0.000	0.300	84.0	35	53.4	83.3	1405	1	100.0	60
10/09/18	3:00 a	71.5	72.2	71.5	97	70.6	0.0	---	0.00	0.0	---	71.5	74.6	74.6	30.273	0.00	0.00	0.000	0.271	84.0	36	54.2	83.5	1406	1	100.0	60
10/09/18	4:00 a	70.8	71.5	70.8	98	70.2	0.0	---	0.00	0.0	---	70.8	74.1	74.1	30.270	0.00	0.00	0.000	0.242	83.9	36	54.1	83.3	1404	1	100.0	60
10/09/18	5:00 a	71.5	71.5	70.8	100	71.5	0.0	---	0.00	0.0	---	71.5	75.1	75.1	30.258	0.00	0.00	0.000	0.271	83.6	36	53.8	82.9	1405	1	100.0	60
10/09/18	6:00 a	71.4	71.7	71.4	99	71.1	0.0	---	0.00	0.0	---	71.4	74.9	74.9	30.260	0.00	0.00	0.000	0.267	82.3	34	51.1	80.9	1405	1	100.0	60
10/09/18	7:00 a	70.8	71.4	70.8	99	70.5	0.0	---	0.00	0.0	---	70.8	74.3	74.3	30.265	0.00	0.00	0.000	0.242	82.7	36	53.0	81.6	1405	1	100.0	60
10/09/18	8:00 a	72.3	72.4	70.7	100	72.3	0.0	---	0.00	0.0	---	72.3	75.9	75.9	30.267	0.00	0.00	0.000	0.304	83.1	36	53.4	82.1	1405	1	100.0	60
10/09/18	9:00 a	75.4	75.4	72.3	97	74.5	0.0	NE	0.00	7.0	NE	75.4	79.3	79.3	30.274	0.00	0.00	0.000	0.433	83.4	35	52.9	82.4	1405	1	100.0	60
10/09/18	10:00 a	79.3	79.3	75.4	86	74.7	0.0	NE	0.00	4.0	NE	79.3	84.5	84.5	30.275	0.00	0.00	0.000	0.596	85.7	36	55.7	85.1	1405	1	100.0	60
10/09/18	11:00 a	81.9	82.0	79.3	79	74.7	0.0	NE	0.00	10.0	ENE	81.9	88.4	88.4	30.272	0.00	0.00	0.000	0.704	85.8	35	55.0	85.1	1405	1	100.0	60
10/09/18	12:00 p	83.5	83.5	81.9	75	74.7	0.0	ENE	0.00	12.0	SSE	83.5	91.4	91.4	30.264	0.00	0.00	0.000	0.771	87.8	36	57.5	86.9	1405	1	100.0	60
10/09/18	1:00 p	83.1	83.5	83.0	74	73.9	0.0	ENE	0.00	14.0	NE	83.1	90.0	90.0	30.241	0.00	0.00	0.000	0.754	87.1	35	56.1	86.3	1405	1	100.0	60
10/09/18	2:00 p	84.9	85.0	83.1	73	75.3	0.0	SSE	0.00	14.0	S	84.9	93.7	93.7	30.220	0.00	0.00	0.000	0.829	89.1	36	58.7	88.8	1405	1	100.0	60
10/09/18	3:00 p	84.5	84.9	84.3	73	74.9	0.0	S	0.00	12.0	SE	84.5	92.9	92.9	30.204	0.00	0.00	0.000	0.813	89.0	35	57.8	88.3	1405	1	100.0	60
10/09/18	4:00 p	83.3	84.5	83.3	76	74.9	0.0	S	0.00	11.0	NE	83.3	91.2	91.2	30.196	0.00	0.00	0.000	0.763	91.2	36	60.5	91.8	1404	1	100.0	60
10/09/18	5:00 p	82.1	83.3	82.1	79	74.9	0.0	ENE	0.00	16.0	ESE	82.1	88.9	88.9	30.184	0.00	0.00	0.000	0.712	88.9	34	56.9	87.9	1405	1	100.0	60
10/09/18	6:00 p	80.1	82.1	80.1	84	74.8	0.0	SE	0.00	13.0	SE	80.1	85.6	85.6	30.178	0.00	0.00	0.000	0.629	89.6	36	59.1	89.6	1405	1	100.0	60
10/09/18	7:00 p	78.3	80.1	78.3	88	74.5	0.0	NE	0.00	12.0	S	78.3	83.1	83.1	30.184	0.00	0.00	0.000	0.554	87.1	33	54.5	85.9	1405	1	100.0	60
10/09/18	8:00 p	76.9	78.3	76.9	90	73.7	0.0	SSE	0.00	6.0	SSE	76.9	80.9	80.9	30.183	0.00	0.00	0.000	0.496	87.3	35	56.3	86.4	1405	1	100.0	60
10/09/18	9:00 p	75.9	76.9	75.9	92	73.4	0.0	E	0.00	7.0	SSE	75.9	79.6	79.6	30.183	0.00	0.00	0.000	0.454	86.2	33	53.7	85.1	1405	1	100.0	60
10/09/18	10:00 p	75.1	75.9	75.1	94	73.3	0.0	SE	0.00	10.0	SSE	75.1	78.8	78.8	30.181	0.00	0.00	0.000	0.421	85.6	34	54.0	84.7	1405	1	100.0	60
10/09/18	11:00 p	74.3	75.1	74.3	95	72.8	0.0	SSE	0.00	6.0	ESE	74.3	77.5	77.5	30.182	0.00	0.00	0.000	0.388	85.7	35	54.9	85.0	1405	1	100.0	60
10/10/18	12:00 a	73.5	74.3	73.5	96	72.3	0.0	---	0.00	0.0	---	73.5	76.5	76.5	30.166	0.00	0.00	0.000	0.354	83.9	34	52.5	83.0	1406	1	100.0	60
WEDNESDAY		Temp	Hi	Low	Out	Dew	Wind	Wind	Wind	Hi	Hi	Wind	Heat	THW			Rain	Heat	Cool	In 	In	In 	In 	Wind	Wind	ISS 	Arc.
Date		Time	Out	Temp	Temp	Hum	Pt.	Speed	Dir	Run	Speed	Dir	Chill	Index	Index	Bar  	Rain	Rate	D-D 	D-D 	Temp	Hum	Dew	Heat	Samp	Tx 	Recept	Int.
10/10/18	1:00 a	72.8	73.5	72.8	97	71.9	0.0	---	0.00	0.0	---	72.8	75.9	75.9	30.153	0.00	0.00	0.000	0.325	84.2	35	53.6	83.5	1403	1	100.0	60
10/10/18	2:00 a	72.2	72.8	72.2	98	71.6	0.0	---	0.00	0.0	---	72.2	75.5	75.5	30.143	0.00	0.00	0.000	0.300	84.3	35	53.7	83.6	1405	1	100.0	60
10/10/18	3:00 a	71.6	72.2	71.6	98	71.0	0.0	---	0.00	0.0	---	71.6	74.9	74.9	30.120	0.00	0.00	0.000	0.275	84.1	36	54.3	83.6	1405	1	100.0	60
10/10/18	4:00 a	71.2	71.6	71.2	99	70.9	0.0	---	0.00	0.0	---	71.2	74.7	74.7	30.104	0.00	0.00	0.000	0.258	84.0	36	54.2	83.5	1404	1	100.0	60
10/10/18	5:00 a	70.9	71.3	70.8	99	70.6	0.0	---	0.00	0.0	---	70.9	74.4	74.4	30.102	0.00	0.00	0.000	0.246	82.4	34	51.2	81.0	1406	1	100.0	60
10/10/18	6:00 a	71.4	71.4	70.9	100	71.4	0.0	---	0.00	0.0	---	71.4	75.1	75.1	30.092	0.00	0.00	0.000	0.267	82.5	36	52.9	81.4	1404	1	100.0	60
10/10/18	7:00 a	71.3	71.6	71.3	100	71.3	0.0	---	0.00	0.0	---	71.3	75.0	75.0	30.095	0.00	0.00	0.000	0.263	82.6	36	52.9	81.5	1405	1	100.0	60
10/10/18	8:00 a	71.8	71.8	71.2	100	71.8	0.0	---	0.00	0.0	---	71.8	75.4	75.4	30.101	0.00	0.00	0.000	0.283	82.9	37	54.0	82.0	1405	1	100.0	60
10/10/18	9:00 a	74.4	74.4	71.8	100	74.4	0.0	ESE	0.00	6.0	ESE	74.4	78.1	78.1	30.105	0.00	0.00	0.000	0.392	84.0	37	54.9	83.7	1405	1	100.0	60
10/10/18	10:00 a	76.5	76.5	74.4	98	75.9	0.0	SSE	0.00	11.0	SSE	76.5	81.1	81.1	30.099	0.00	0.00	0.000	0.479	85.0	35	54.3	84.2	1405	1	100.0	60
10/10/18	11:00 a	80.9	80.9	76.5	85	76.0	4.0	ESE	4.00	13.0	ESE	80.9	87.6	87.6	30.079	0.00	0.00	0.000	0.663	86.5	35	55.6	85.8	1405	1	100.0	60
10/10/18	12:00 p	82.8	82.8	80.7	82	76.7	0.0	SW	0.00	13.0	SW	82.8	91.7	91.7	30.062	0.00	0.00	0.000	0.742	86.6	35	55.7	85.8	1405	1	100.0	60
10/10/18	1:00 p	84.3	84.3	82.8	73	74.7	4.0	SW	4.00	10.0	SW	84.3	92.6	92.6	30.042	0.00	0.00	0.000	0.804	88.6	36	58.2	88.0	1405	1	100.0	60
10/10/18	2:00 p	86.4	86.4	84.3	64	72.8	6.0	SSE	6.00	17.0	SSE	86.4	93.9	93.9	30.011	0.00	0.00	0.000	0.892	88.2	35	57.1	87.1	1405	1	100.0	60
10/10/18	3:00 p	87.3	87.3	86.4	64	73.6	4.0	S	4.00	13.0	S	87.3	95.6	95.6	29.978	0.00	0.00	0.000	0.929	91.7	35	60.2	92.2	1405	1	100.0	60
10/10/18	4:00 p	86.6	87.3	86.6	64	73.0	0.0	E	0.00	13.0	E	86.6	94.3	94.3	29.957	0.00	0.00	0.000	0.900	92.2	33	58.9	92.4	1405	1	100.0	60
10/10/18	5:00 p	85.0	86.8	85.0	66	72.4	0.0	SE	0.00	15.0	SE	85.0	91.5	91.5	29.945	0.00	0.00	0.000	0.833	92.1	34	59.7	92.5	1405	1	100.0	60
10/10/18	6:00 p	82.4	85.0	82.3	71	72.0	0.0	ESE	0.00	14.0	ESE	82.4	87.4	87.4	29.937	0.00	0.00	0.000	0.725	90.0	34	57.9	89.7	1405	1	100.0	60
10/10/18	7:00 p	80.3	82.4	80.3	76	72.0	0.0	ESE	0.00	9.0	ESE	80.3	84.3	84.3	29.935	0.00	0.00	0.000	0.638	90.3	35	58.9	90.3	1405	1	100.0	60
10/10/18	8:00 p	78.8	80.3	78.8	84	73.6	0.0	ESE	0.00	8.0	ESE	78.8	83.2	83.2	29.939	0.00	0.00	0.000	0.575	87.7	33	55.0	86.2	1404	1	100.0	60
10/10/18	9:00 p	77.7	78.8	77.7	88	73.9	0.0	SSE	0.00	11.0	SSE	77.7	82.0	82.0	29.926	0.00	0.00	0.000	0.529	87.9	35	56.8	86.7	1405	1	100.0	60
10/10/18	10:00 p	76.5	77.7	76.5	90	73.3	0.0	SE	0.00	9.0	SE	76.5	80.3	80.3	29.919	0.00	0.00	0.000	0.479	86.2	33	53.7	85.1	1405	1	100.0	60
10/10/18	11:00 p	76.2	76.5	76.1	92	73.7	0.0	SSE	0.00	9.0	SSE	76.2	80.0	80.0	29.906	0.00	0.00	0.000	0.467	86.1	34	54.5	85.2	1405	1	100.0	60
10/11/18	12:00 a	76.3	76.3	76.1	92	73.8	0.0	SSE	0.00	10.0	SSE	76.3	80.2	80.2	29.884	0.00	0.00	0.000	0.471	86.2	35	55.3	85.5	1405	1	100.0	60
THURSDAY		Temp	Hi	Low	Out	Dew	Wind	Wind	Wind	Hi	Hi	Wind	Heat	THW			Rain	Heat	Cool	In 	In	In 	In 	Wind	Wind	ISS 	Arc.
Date		Time	Out	Temp	Temp	Hum	Pt.	Speed	Dir	Run	Speed	Dir	Chill	Index	Index	Bar  	Rain	Rate	D-D 	D-D 	Temp	Hum	Dew	Heat	Samp	Tx 	Recept	Int.
10/11/18	1:00 a	76.7	76.7	76.3	94	74.8	0.0	SE	0.00	11.0	SE	76.7	80.9	80.9	29.859	0.00	0.00	0.000	0.487	84.6	34	53.1	83.6	1404	1	100.0	60
10/11/18	2:00 a	76.8	77.0	76.7	96	75.6	0.0	SW	0.00	10.0	SW	76.8	81.3	81.3	29.838	0.00	0.00	0.000	0.492	85.2	35	54.5	84.4	1405	1	100.0	60
10/11/18	3:00 a	76.7	76.8	76.6	97	75.8	0.0	ESE	0.00	9.0	ESE	76.7	81.3	81.3	29.813	0.00	0.00	0.000	0.487	85.4	36	55.4	84.8	1405	1	100.0	60
10/11/18	4:00 a	76.7	76.8	76.7	98	76.1	0.0	E	0.00	10.0	E	76.7	81.4	81.4	29.795	0.01	0.00	0.000	0.487	84.4	34	53.0	83.5	1405	1	100.0	60
10/11/18	5:00 a	76.8	76.8	76.7	98	76.2	0.0	SSE	0.00	8.0	SSE	76.8	81.6	81.6	29.781	0.00	0.00	0.000	0.492	84.2	35	53.6	83.5	1405	1	100.0	60
10/11/18	6:00 a	76.8	76.9	76.7	99	76.5	0.0	S	0.00	13.0	S	76.8	81.7	81.7	29.767	0.03	0.15	0.000	0.492	84.4	36	54.5	83.9	1405	1	100.0	60
10/11/18	7:00 a	76.4	76.8	76.4	99	76.1	0.0	S	0.00	14.0	S	76.4	81.0	81.0	29.770	0.00	0.00	0.000	0.475	85.0	37	55.8	84.6	1404	1	100.0	60
10/11/18	8:00 a	76.2	76.4	76.0	100	76.2	0.0	ESE	0.00	10.0	ESE	76.2	80.7	80.7	29.760	0.00	0.00	0.000	0.467	83.5	35	53.0	82.6	1405	1	100.0	60
10/11/18	9:00 a	77.8	77.8	76.2	99	77.5	0.0	SE	0.00	10.0	SE	77.8	83.8	83.8	29.746	0.00	0.00	0.000	0.533	85.3	36	55.3	84.7	1406	1	100.0	60
10/11/18	10:00 a	79.5	79.5	77.8	95	77.9	0.0	SSE	0.00	14.0	SSE	79.5	87.0	87.0	29.736	0.00	0.00	0.000	0.604	83.9	37	54.8	83.5	1404	1	100.0	60
10/11/18	11:00 a	82.5	82.5	79.5	90	79.3	4.0	SSE	4.00	15.0	SSE	82.5	93.5	93.5	29.716	0.00	0.00	0.000	0.729	80.5	40	54.0	79.5	1405	1	100.0	60
10/11/18	12:00 p	85.4	85.4	82.5	85	80.4	3.0	SSW	3.00	20.0	SSW	85.4	99.5	99.5	29.686	0.00	0.00	0.000	0.850	82.4	41	56.3	82.0	1405	1	100.0	60
10/11/18	1:00 p	86.8	86.8	85.3	80	79.9	4.0	S	4.00	17.0	S	86.8	101.4	101.4	29.638	0.00	0.00	0.000	0.908	82.7	41	56.6	82.4	1405	1	100.0	60
10/11/18	2:00 p	86.1	87.0	86.0	78	78.4	5.0	SSW	5.00	17.0	SSW	86.1	98.4	98.4	29.593	0.00	0.00	0.000	0.879	83.4	41	57.2	83.5	1405	1	100.0	60
10/11/18	3:00 p	84.9	86.2	84.9	84	79.5	6.0	SSE	6.00	23.0	SSE	84.9	97.8	97.8	29.545	0.01	0.00	0.000	0.829	83.0	42	57.5	83.0	1405	1	100.0	60
10/11/18	4:00 p	81.7	84.8	81.7	92	79.1	3.0	ESE	3.00	21.0	ESE	81.7	91.9	91.9	29.500	0.02	0.08	0.000	0.696	82.9	41	56.8	82.7	1405	1	100.0	60
10/11/18	5:00 p	81.6	81.8	81.6	90	78.4	0.0	---	0.00	---	---	81.6	90.9	90.9	29.436	0.00	0.00	0.000	0.692	82.1	42	56.7	81.7	1405	1	100.0	60
10/11/18	6:00 p	81.4	81.6	81.2	89	77.8	14.0	SSE	14.00	20.0	SSE	78.9	90.1	87.6	29.376	0.00	0.00	0.000	0.683	82.1	42	56.7	81.7	1405	1	100.0	60
10/11/18	7:00 p	79.4	81.5	79.4	95	77.8	10.0	SSE	10.00	25.0	SSE	77.7	86.7	85.0	29.302	0.10	2.20	0.000	0.600	87.1	40	59.8	87.5	1405	1	100.0	60
10/11/18	8:00 p	77.5	79.4	77.5	97	76.6	8.0	SE	8.00	20.0	SE	77.0	82.8	82.3	29.223	0.21	1.27	0.000	0.521	85.8	38	57.3	85.6	1405	1	100.0	60
10/11/18	9:00 p	76.4	77.5	76.4	98	75.8	0.0	SSW	0.00	18.0	SSW	76.4	80.9	80.9	29.174	0.02	0.24	0.000	0.475	84.8	37	55.6	84.4	1405	1	100.0	60
10/11/18	10:00 p	74.8	76.4	74.8	97	73.9	0.0	SE	0.00	11.0	SSE	74.8	78.4	78.4	29.156	0.00	0.00	0.000	0.408	84.3	36	54.4	83.8	1404	1	100.0	60
10/11/18	11:00 p	73.4	74.9	73.4	96	72.2	0.0	NW	0.00	21.0	WNW	73.4	76.4	76.4	29.170	0.03	0.12	0.000	0.350	84.2	37	55.1	83.9	1404	1	100.0	60
10/12/18	12:00 a	70.9	73.3	70.9	95	69.4	14.0	WNW	14.00	54.0	W	67.1	73.6	69.8	29.268	0.01	0.09	0.000	0.246	84.0	39	56.4	84.1	1400	1	100.0	60

FRIDAY			Temp	Hi	Low	Out	Dew	Wind	Wind	Wind	Hi	Hi	Wind	Heat	THW			Rain	Heat	Cool	In 	In	In 	In 	Wind	Wind	ISS 	Arc.
Date		Time	Out	Temp	Temp	Hum	Pt.	Speed	Dir	Run	Speed	Dir	Chill	Index	Index	Bar  	Rain	Rate	D-D 	D-D 	Temp	Hum	Dew	Heat	Samp	Tx 	Recept	Int.
10/12/18	1:00 a	69.3	70.9	69.3	99	69.0	13.0	W	13.00	65.0	N	65.7	72.2	68.6	29.381	0.07	0.07	0.000	0.179	84.9	43	59.9	85.6	1403	1	100.0	60
10/12/18	2:00 a	69.3	69.8	69.3	98	68.7	10.0	WSW	10.00	38.0	WSW	67.2	72.1	70.0	29.471	0.01	0.05	0.000	0.179	85.4	42	59.7	85.9	1405	1	100.0	60
10/12/18	3:00 a	67.5	69.3	67.5	93	65.4	10.0	WSW	10.00	32.0	S	65.5	69.2	67.2	29.538	0.00	0.00	0.000	0.104	85.5	42	59.8	86.0	1405	1	100.0	60
10/12/18	4:00 a	66.4	67.5	66.4	83	61.1	12.0	W	12.00	33.0	W	63.1	67.5	64.2	29.581	0.00	0.00	0.000	0.058	85.0	42	59.3	85.5	1405	1	100.0	60
10/12/18	5:00 a	65.5	66.4	65.5	84	60.5	0.0	W	0.00	21.0	NW	65.5	66.4	66.4	29.622	0.00	0.00	0.000	0.021	84.1	42	58.5	84.7	1405	1	100.0	60
10/12/18	6:00 a	63.9	65.5	63.9	81	58.0	0.0	WSW	0.00	22.0	W	63.9	64.4	64.4	29.671	0.00	0.00	0.046	0.000	83.4	42	57.9	83.7	1405	1	100.0	60
10/12/18	7:00 a	62.5	63.9	62.5	81	56.6	0.0	WNW	0.00	23.0	WNW	62.5	62.8	62.8	29.699	0.00	0.00	0.104	0.000	82.8	43	58.0	82.9	1405	1	100.0	60
10/12/18	8:00 a	61.5	62.5	61.5	73	52.8	0.0	WNW	0.00	25.0	WNW	61.5	61.1	61.1	29.733	0.00	0.00	0.146	0.000	82.3	42	56.9	82.0	1405	1	100.0	60
10/12/18	9:00 a	61.9	61.9	61.3	71	52.4	10.0	WNW	10.00	29.0	NW	59.2	61.5	58.8	29.761	0.00	0.00	0.129	0.000	82.4	41	56.3	82.0	1404	1	100.0	60
10/12/18	10:00 a	63.2	63.2	61.9	66	51.6	11.0	WNW	11.00	26.0	W	60.0	62.7	59.5	29.774	0.00	0.00	0.075	0.000	80.7	44	56.8	80.2	1404	1	100.0	60
10/12/18	11:00 a	64.9	64.9	63.3	62	51.6	4.0	WNW	4.00	22.0	WNW	64.9	64.3	64.3	29.782	0.00	0.00	0.004	0.000	80.2	45	56.9	79.8	1406	1	100.0	60
10/12/18	12:00 p	66.5	66.5	64.9	62	53.1	4.0	W	4.00	20.0	W	66.5	66.1	66.1	29.778	0.00	0.00	0.000	0.063	81.2	45	57.8	80.9	1404	1	100.0	60
10/12/18	1:00 p	67.5	67.5	66.5	59	52.7	0.0	W	0.00	17.0	W	67.5	67.0	67.0	29.761	0.00	0.00	0.000	0.104	82.3	45	58.8	82.4	1405	1	100.0	60
10/12/18	2:00 p	68.3	68.3	67.5	56	52.0	0.0	NNE	0.00	6.0	WSW	68.3	67.5	67.5	29.749	0.00	0.00	0.000	0.138	82.8	45	59.3	83.2	1405	1	100.0	60
10/12/18	3:00 p	68.7	68.7	68.2	57	52.8	0.0	WNW	0.00	16.0	NW	68.7	67.9	67.9	29.753	0.00	0.00	0.000	0.154	84.2	44	59.9	85.1	1405	1	100.0	60
10/12/18	4:00 p	68.9	69.0	68.7	56	52.6	0.0	W	0.00	16.0	W	68.9	68.0	68.0	29.752	0.00	0.00	0.000	0.163	87.9	41	61.3	88.3	1405	1	100.0	60
10/12/18	5:00 p	68.8	69.1	68.8	57	52.9	0.0	NNE	0.00	7.0	WNW	68.8	68.0	68.0	29.762	0.00	0.00	0.000	0.158	86.0	43	60.9	86.7	1405	1	100.0	60
10/12/18	6:00 p	67.7	68.8	67.7	59	52.9	0.0	W	0.00	4.0	W	67.7	67.2	67.2	29.780	0.00	0.00	0.000	0.112	85.0	44	60.6	85.8	1405	1	100.0	60
10/12/18	7:00 p	65.0	67.7	65.0	69	54.6	0.0	---	0.00	0.0	---	65.0	64.9	64.9	29.772	0.00	0.00	0.000	0.000	86.1	43	61.0	86.9	1405	1	100.0	60
10/12/18	8:00 p	61.6	65.0	61.6	78	54.7	0.0	---	0.00	0.0	---	61.6	61.6	61.6	29.783	0.00	0.00	0.142	0.000	83.4	37	54.4	82.8	1405	1	100.0	60
10/12/18	9:00 p	59.5	61.6	59.4	84	54.7	0.0	---	0.00	0.0	---	59.5	59.5	59.5	29.797	0.00	0.00	0.229	0.000	83.2	38	55.0	82.7	1405	1	100.0	60
10/12/18	10:00 p	59.1	59.5	59.1	83	53.9	0.0	---	0.00	0.0	---	59.1	59.0	59.0	29.807	0.00	0.00	0.246	0.000	82.5	39	55.0	81.9	1405	1	100.0	60
10/12/18	11:00 p	59.4	59.5	59.1	81	53.6	0.0	---	0.00	0.0	---	59.4	59.3	59.3	29.806	0.00	0.00	0.233	0.000	81.9	39	54.5	81.1	1405	1	100.0	60
10/13/18	12:00 a	58.6	59.6	58.6	85	54.1	0.0	---	0.00	0.0	---	58.6	58.6	58.6	29.801	0.00	0.00	0.267	0.000	81.6	39	54.2	80.7	1404	1	100.0	60

SATURDAY		Temp	Hi	Low	Out	Dew	Wind	Wind	Wind	Hi	Hi	Wind	Heat	THW			Rain	Heat	Cool	In 	In	In 	In 	Wind	Wind	ISS 	Arc.
Date		Time	Out	Temp	Temp	Hum	Pt.	Speed	Dir	Run	Speed	Dir	Chill	Index	Index	Bar  	Rain	Rate	D-D 	D-D 	Temp	Hum	Dew	Heat	Samp	Tx 	Recept	Int.
10/13/18	1:00 a	57.1	58.6	57.1	90	54.2	0.0	---	0.00	0.0	---	57.1	57.2	57.2	29.792	0.00	0.00	0.329	0.000	81.0	40	54.4	80.0	1403	1	100.0	60
10/13/18	2:00 a	57.3	57.3	57.0	93	55.3	0.0	---	0.00	0.0	---	57.3	57.5	57.5	29.780	0.00	0.00	0.321	0.000	80.3	40	53.8	79.3	1405	1	100.0	60
10/13/18	3:00 a	57.6	57.7	57.3	94	55.9	0.0	---	0.00	0.0	---	57.6	57.8	57.8	29.774	0.00	0.00	0.308	0.000	79.9	40	53.4	78.9	1405	1	100.0	60
10/13/18	4:00 a	58.2	58.2	57.6	95	56.8	0.0	---	0.00	0.0	---	58.2	58.5	58.5	29.775	0.00	0.00	0.283	0.000	79.4	41	53.6	78.6	1405	1	100.0	60
10/13/18	5:00 a	58.5	58.5	58.2	95	57.1	0.0	---	0.00	0.0	---	58.5	58.9	58.9	29.781	0.00	0.00	0.271	0.000	79.0	41	53.3	78.3	1405	1	100.0	60
10/13/18	6:00 a	58.7	58.7	58.5	95	57.3	0.0	---	0.00	0.0	---	58.7	59.1	59.1	29.796	0.00	0.00	0.262	0.000	78.7	41	53.0	78.0	1405	1	100.0	60
10/13/18	7:00 a	59.0	59.0	58.7	95	57.6	0.0	---	0.00	0.0	---	59.0	59.4	59.4	29.808	0.00	0.00	0.250	0.000	78.6	42	53.6	78.0	1405	1	100.0	60
10/13/18	8:00 a	59.7	59.7	59.0	95	58.3	0.0	---	0.00	0.0	---	59.7	60.1	60.1	29.819	0.00	0.00	0.221	0.000	78.3	40	52.0	77.4	1405	1	100.0	60
10/13/18	9:00 a	61.5	61.5	59.7	91	58.8	0.0	---	0.00	0.0	---	61.5	62.0	62.0	29.851	0.00	0.00	0.146	0.000	78.6	41	52.9	77.9	1405	1	100.0	60
10/13/18	10:00 a	64.6	64.6	61.6	76	56.9	0.0	NNE	0.00	4.0	NNE	64.6	64.9	64.9	29.870	0.00	0.00	0.017	0.000	79.5	41	53.7	78.7	1405	1	100.0	60
10/13/18	11:00 a	66.5	66.5	64.6	75	58.3	0.0	NNE	0.00	5.0	ENE	66.5	67.1	67.1	29.883	0.00	0.00	0.000	0.063	80.5	41	54.6	79.6	1404	1	100.0	60
10/13/18	12:00 p	66.3	66.9	66.3	70	56.2	0.0	NNE	0.00	16.0	NNE	66.3	66.6	66.6	29.908	0.00	0.00	0.000	0.054	81.4	41	55.4	80.6	1405	1	100.0	60
10/13/18	1:00 p	67.1	67.1	65.7	69	56.6	0.0	NE	0.00	16.0	NE	67.1	67.4	67.4	29.913	0.00	0.00	0.000	0.087	82.3	41	56.2	81.9	1405	1	100.0	60
10/13/18	2:00 p	67.7	67.7	66.8	59	52.9	0.0	WNW	0.00	19.0	NW	67.7	67.2	67.2	29.914	0.00	0.00	0.000	0.112	83.4	41	57.2	83.5	1405	1	100.0	60
10/13/18	3:00 p	67.4	67.7	67.3	58	52.1	4.0	W	4.00	20.0	WNW	67.4	66.8	66.8	29.924	0.00	0.00	0.000	0.100	85.2	36	55.2	84.6	1405	1	100.0	60
10/13/18	4:00 p	67.4	67.5	67.3	55	50.7	4.0	W	4.00	21.0	WNW	67.4	66.5	66.5	29.931	0.00	0.00	0.000	0.100	88.3	37	58.7	87.8	1405	1	100.0	60
10/13/18	5:00 p	67.0	67.4	67.0	56	50.8	0.0	W	0.00	19.0	W	67.0	66.2	66.2	29.949	0.00	0.00	0.000	0.083	87.0	39	59.0	87.2	1405	1	100.0	60
10/13/18	6:00 p	65.6	67.0	65.6	59	50.9	0.0	NNE	0.00	11.0	W	65.6	64.8	64.8	29.970	0.00	0.00	0.000	0.025	86.2	39	58.3	86.2	1405	1	100.0	60
10/13/18	7:00 p	63.5	65.6	63.5	66	51.9	0.0	NE	0.00	4.0	NE	63.5	63.0	63.0	29.999	0.00	0.00	0.063	0.000	83.7	35	53.1	82.8	1405	1	100.0	60
10/13/18	8:00 p	61.0	63.5	61.0	73	52.3	0.0	NNE	0.00	17.0	WNW	61.0	60.6	60.6	30.035	0.00	0.00	0.167	0.000	83.1	38	54.9	82.5	1405	1	100.0	60
10/13/18	9:00 p	59.6	61.0	59.6	73	50.9	0.0	N	0.00	7.0	N	59.6	59.1	59.1	30.076	0.00	0.00	0.225	0.000	82.4	39	55.0	81.7	1405	1	100.0	60
10/13/18	10:00 p	58.7	59.6	58.7	72	49.7	0.0	NNE	0.00	4.0	NNE	58.7	58.1	58.1	30.091	0.00	0.00	0.262	0.000	81.6	39	54.2	80.7	1405	1	100.0	60
10/13/18	11:00 p	57.3	58.7	57.3	73	48.7	0.0	---	0.00	0.0	---	57.3	56.7	56.7	30.109	0.00	0.00	0.321	0.000	80.8	39	53.5	79.7	1405	1	100.0	60
10/14/18	12:00 a	55.5	57.3	55.5	78	48.8	0.0	---	0.00	0.0	---	55.5	55.1	55.1	30.116	0.00	0.00	0.396	0.000	80.1	39	52.9	79.0	1405	1	100.0	60

SUNDAY			Temp	Hi	Low	Out	Dew	Wind	Wind	Wind	Hi	Hi	Wind	Heat	THW			Rain	Heat	Cool	In 	In	In 	In 	Wind	Wind	ISS 	Arc.
Date		Time	Out	Temp	Temp	Hum	Pt.	Speed	Dir	Run	Speed	Dir	Chill	Index	Index	Bar  	Rain	Rate	D-D 	D-D 	Temp	Hum	Dew	Heat	Samp	Tx 	Recept	Int.
10/14/18	1:00 a	53.4	55.5	53.4	84	48.7	0.0	---	0.00	0.0	---	53.4	53.3	53.3	30.127	0.00	0.00	0.483	0.000	78.7	40	52.3	77.9	1403	1	100.0	60
10/14/18	2:00 a	51.7	53.4	51.7	88	48.3	0.0	---	0.00	0.0	---	51.7	51.8	51.8	30.132	0.00	0.00	0.554	0.000	77.9	40	51.6	77.0	1405	1	100.0	60
10/14/18	3:00 a	50.8	51.7	50.8	90	48.0	0.0	---	0.00	0.0	---	50.8	51.0	51.0	30.130	0.00	0.00	0.592	0.000	77.3	41	51.8	76.5	1405	1	100.0	60
10/14/18	4:00 a	51.0	51.0	50.6	93	49.0	0.0	---	0.00	0.0	---	51.0	51.3	51.3	30.146	0.00	0.00	0.583	0.000	76.6	41	51.1	75.8	1405	1	100.0	60
10/14/18	5:00 a	51.3	51.4	51.0	93	49.3	0.0	---	0.00	0.0	---	51.3	51.6	51.6	30.153	0.00	0.00	0.571	0.000	76.1	41	50.7	75.3	1405	1	100.0	60
10/14/18	6:00 a	51.0	51.4	50.9	94	49.3	0.0	---	0.00	0.0	---	51.0	51.4	51.4	30.162	0.00	0.00	0.583	0.000	76.2	41	50.8	75.4	1405	1	100.0	60
10/14/18	7:00 a	51.0	51.1	50.8	95	49.6	0.0	---	0.00	0.0	---	51.0	51.4	51.4	30.173	0.00	0.00	0.583	0.000	75.8	41	50.4	75.0	1405	1	100.0	60
10/14/18	8:00 a	52.1	52.1	51.0	96	51.0	0.0	---	0.00	0.0	---	52.1	52.4	52.4	30.189	0.00	0.00	0.538	0.000	75.6	41	50.2	74.8	1405	1	100.0	60
10/14/18	9:00 a	54.8	54.8	52.1	97	54.0	0.0	---	0.00	0.0	---	54.8	55.1	55.1	30.205	0.00	0.00	0.425	0.000	76.0	40	49.9	75.1	1405	1	100.0	60
10/14/18	10:00 a	61.5	61.5	54.8	76	53.9	0.0	---	0.00	0.0	---	61.5	61.3	61.3	30.202	0.00	0.00	0.146	0.000	77.4	40	51.2	76.6	1405	1	100.0	60
10/14/18	11:00 a	65.2	65.2	61.5	68	54.4	0.0	S	0.00	6.0	S	65.2	65.1	65.1	30.224	0.00	0.00	0.000	0.008	78.1	41	52.5	77.3	1405	1	100.0	60
10/14/18	12:00 p	67.8	67.8	65.2	67	56.4	0.0	ENE	0.00	4.0	ESE	67.8	68.1	68.1	30.232	0.00	0.00	0.000	0.117	79.4	40	53.0	78.5	1404	1	100.0	60
10/14/18	1:00 p	68.7	68.8	67.8	67	57.3	0.0	E	0.00	7.0	E	68.7	68.9	68.9	30.217	0.00	0.00	0.000	0.154	80.1	40	53.6	79.1	1405	1	100.0	60
10/14/18	2:00 p	69.0	69.5	68.7	62	55.4	0.0	---	0.00	0.0	---	69.0	68.6	68.6	30.191	0.00	0.00	0.000	0.167	80.7	40	54.1	79.7	1405	1	100.0	60
10/14/18	3:00 p	69.3	69.5	69.0	69	58.7	0.0	---	0.00	0.0	---	69.3	69.5	69.5	30.189	0.00	0.00	0.000	0.179	81.7	40	55.0	80.9	1405	1	100.0	60
10/14/18	4:00 p	69.5	69.5	69.2	65	57.2	0.0	NNE	0.00	6.0	ESE	69.5	69.3	69.3	30.184	0.00	0.00	0.000	0.188	84.7	39	57.0	84.7	1405	1	100.0	60
10/14/18	5:00 p	69.3	69.7	69.3	68	58.3	0.0	SSW	0.00	5.0	SSW	69.3	69.4	69.4	30.177	0.00	0.00	0.000	0.179	83.6	40	56.7	83.7	1405	1	100.0	60
10/14/18	6:00 p	67.4	69.3	67.4	72	58.1	0.0	---	0.00	0.0	---	67.4	68.0	68.0	30.185	0.00	0.00	0.000	0.100	83.1	40	56.3	82.9	1405	1	100.0	60
10/14/18	7:00 p	65.7	67.4	65.7	73	56.8	0.0	---	0.00	0.0	---	65.7	66.0	66.0	30.184	0.00	0.00	0.000	0.029	81.9	39	54.5	81.1	1405	1	100.0	60
10/14/18	8:00 p	64.7	65.7	64.7	74	56.2	0.0	---	0.00	0.0	---	64.7	64.9	64.9	30.197	0.00	0.00	0.013	0.000	81.8	39	54.4	80.9	1405	1	100.0	60
10/14/18	9:00 p	64.3	64.7	64.2	77	56.9	0.0	---	0.00	0.0	---	64.3	64.6	64.6	30.199	0.00	0.00	0.029	0.000	81.5	40	54.8	80.7	1405	1	100.0	60
10/14/18	10:00 p	64.0	64.3	64.0	77	56.6	0.0	---	0.00	0.0	---	64.0	64.3	64.3	30.204	0.00	0.00	0.042	0.000	81.1	40	54.5	80.1	1405	1	100.0	60
10/14/18	11:00 p	63.9	64.1	63.9	78	56.9	0.0	---	0.00	0.0	---	63.9	64.2	64.2	30.202	0.00	0.00	0.046	0.000	80.8	41	54.9	79.9	1405	1	100.0	60
10/15/18	12:00 a	63.8	64.0	63.8	81	57.9	0.0	---	0.00	0.0	---	63.8	64.3	64.3	30.196	0.00	0.00	0.050	0.000	80.6	41	54.7	79.7	1405	1	100.0	60

MONDAY			Temp	Hi	Low	Out	Dew	Wind	Wind	Wind	Hi	Hi	Wind	Heat	THW			Rain	Heat	Cool	In 	In	In 	In 	Wind	Wind	ISS 	Arc.
Date		Time	Out	Temp	Temp	Hum	Pt.	Speed	Dir	Run	Speed	Dir	Chill	Index	Index	Bar  	Rain	Rate	D-D 	D-D 	Temp	Hum	Dew	Heat	Samp	Tx 	Recept	Int.
10/15/18	1:00 a	63.5	63.8	63.5	84	58.6	0.0	---	0.00	0.0	---	63.5	64.0	64.0	30.180	0.00	0.00	0.063	0.000	79.8	42	54.7	79.1	1403	1	100.0	60
10/15/18	2:00 a	63.4	63.5	63.4	84	58.5	0.0	---	0.00	0.0	---	63.4	63.9	63.9	30.177	0.00	0.00	0.067	0.000	79.3	42	54.2	78.7	1405	1	100.0	60
10/15/18	3:00 a	63.9	63.9	63.4	84	59.0	0.0	ESE	0.00	4.0	E	63.9	64.5	64.5	30.168	0.00	0.00	0.046	0.000	79.1	42	54.0	78.5	1405	1	100.0	60
10/15/18	4:00 a	64.3	64.3	63.8	84	59.4	0.0	ESE	0.00	12.0	ESE	64.3	64.9	64.9	30.151	0.00	0.00	0.029	0.000	78.8	43	54.4	78.3	1405	1	100.0	60
10/15/18	5:00 a	63.9	64.4	63.9	85	59.3	0.0	SE	0.00	12.0	SSE	63.9	64.5	64.5	30.137	0.00	0.00	0.046	0.000	78.9	43	54.5	78.4	1405	1	100.0	60
10/15/18	6:00 a	64.3	64.3	63.9	85	59.7	0.0	SE	0.00	4.0	SE	64.3	65.0	65.0	30.139	0.00	0.00	0.029	0.000	78.5	43	54.1	77.9	1405	1	100.0	60
10/15/18	7:00 a	64.1	64.4	64.1	87	60.2	0.0	ESE	0.00	5.0	ESE	64.1	64.8	64.8	30.156	0.00	0.00	0.038	0.000	78.6	43	54.2	78.1	1405	1	100.0	60
10/15/18	8:00 a	64.3	64.3	63.9	91	61.6	0.0	SE	0.00	7.0	SSE	64.3	65.2	65.2	30.154	0.00	0.00	0.029	0.000	78.8	43	54.4	78.3	1405	1	100.0	60
10/15/18	9:00 a	68.3	68.3	64.2	94	66.5	0.0	S	0.00	11.0	ESE	68.3	70.3	70.3	30.161	0.00	0.00	0.000	0.138	79.7	43	55.2	79.1	1405	1	100.0	60
10/15/18	10:00 a	72.6	72.6	68.3	91	69.8	0.0	SE	0.00	7.0	SSE	72.6	75.1	75.1	30.162	0.00	0.00	0.000	0.317	80.8	42	55.6	80.0	1405	1	100.0	60
10/15/18	11:00 a	76.7	76.7	72.6	85	71.8	4.0	SSW	4.00	22.0	SSW	76.7	80.2	80.2	30.144	0.00	0.00	0.000	0.487	81.9	43	57.2	81.5	1405	1	100.0	60
10/15/18	12:00 p	79.8	79.8	76.7	79	72.7	4.0	S	4.00	20.0	S	79.8	84.0	84.0	30.129	0.00	0.00	0.000	0.617	84.1	43	59.2	84.9	1405	1	100.0	60
10/15/18	1:00 p	80.9	81.0	79.8	76	72.6	4.0	SSE	4.00	19.0	SSE	80.9	85.4	85.4	30.103	0.00	0.00	0.000	0.663	84.1	40	57.2	84.4	1405	1	100.0	60
10/15/18	2:00 p	81.3	81.6	80.9	76	73.0	0.0	S	0.00	18.0	S	81.3	86.3	86.3	30.080	0.00	0.00	0.000	0.679	85.5	42	59.8	86.0	1405	1	100.0	60
10/15/18	3:00 p	83.3	83.3	81.3	71	72.9	0.0	S	0.00	20.0	S	83.3	89.5	89.5	30.066	0.00	0.00	0.000	0.763	87.3	39	59.3	87.4	1404	1	100.0	60
10/15/18	4:00 p	82.7	83.4	82.7	71	72.3	0.0	SSW	0.00	15.0	SSW	82.7	88.1	88.1	30.056	0.00	0.00	0.000	0.737	87.9	39	59.8	87.8	1405	1	100.0	60
10/15/18	5:00 p	81.8	82.7	81.8	74	72.7	0.0	S	0.00	10.0	SSE	81.8	86.8	86.8	30.054	0.00	0.00	0.000	0.700	88.2	41	61.5	88.8	1405	1	100.0	60
10/15/18	6:00 p	80.0	81.8	80.0	76	71.8	0.0	S	0.00	6.0	SE	80.0	83.8	83.8	30.053	0.00	0.00	0.000	0.625	86.3	38	57.7	86.2	1405	1	100.0	60
10/15/18	7:00 p	77.5	80.0	77.5	81	71.2	0.0	SSW	0.00	6.0	W	77.5	80.8	80.8	30.051	0.00	0.00	0.000	0.521	86.6	39	58.7	86.7	1405	1	100.0	60
10/15/18	8:00 p	75.1	77.5	75.1	85	70.3	0.0	---	0.00	0.0	---	75.1	78.1	78.1	30.058	0.00	0.00	0.000	0.421	84.6	37	55.5	84.2	1405	1	100.0	60
10/15/18	9:00 p	73.3	75.1	73.3	89	69.9	0.0	---	0.00	0.0	---	73.3	75.7	75.7	30.054	0.00	0.00	0.000	0.346	84.9	38	56.5	84.7	1405	1	100.0	60
10/15/18	10:00 p	72.1	73.3	72.1	91	69.3	0.0	---	0.00	0.0	---	72.1	74.4	74.4	30.066	0.00	0.00	0.000	0.296	84.7	39	57.0	84.7	1405	1	100.0	60
10/15/18	11:00 p	71.3	72.2	71.3	93	69.2	0.0	SSE	0.00	4.0	SSE	71.3	73.8	73.8	30.066	0.00	0.00	0.000	0.263	82.8	38	54.6	82.1	1405	1	100.0	60
10/16/18	12:00 a	71.0	71.3	70.9	94	69.2	0.0	SSE	0.00	6.0	SSE	71.0	73.6	73.6	30.048	0.00	0.00	0.000	0.250	83.2	38	55.0	82.7	1406	1	100.0	60

TUESDAY			Temp	Hi	Low	Out	Dew	Wind	Wind	Wind	Hi	Hi	Wind	Heat	THW			Rain	Heat	Cool	In 	In	In 	In 	Wind	Wind	ISS 	Arc.
Date		Time	Out	Temp	Temp	Hum	Pt.	Speed	Dir	Run	Speed	Dir	Chill	Index	Index	Bar  	Rain	Rate	D-D 	D-D 	Temp	Hum	Dew	Heat	Samp	Tx 	Recept	Int.
10/16/18	1:00 a	71.4	71.4	70.9	94	69.6	0.0	SSW	0.00	4.0	SSW	71.4	74.0	74.0	30.039	0.00	0.00	0.000	0.267	83.3	39	55.8	83.0	1403	1	100.0	60
10/16/18	2:00 a	71.3	71.5	71.3	95	69.8	0.0	SSW	0.00	12.0	SSW	71.3	74.0	74.0	30.028	0.00	0.00	0.000	0.263	83.0	40	56.2	82.7	1404	1	100.0	60
10/16/18	3:00 a	70.9	71.3	70.9	95	69.4	0.0	SSW	0.00	14.0	SSW	70.9	73.6	73.6	30.029	0.00	0.00	0.000	0.246	82.9	40	56.1	82.6	1405	1	100.0	60
10/16/18	4:00 a	70.3	70.9	70.2	96	69.1	0.0	---	0.00	0.0	---	70.3	73.1	73.1	30.036	0.00	0.00	0.000	0.221	82.9	40	56.1	82.6	1405	1	100.0	60
10/16/18	5:00 a	70.1	70.4	70.1	96	68.9	0.0	SSW	0.00	5.0	S	70.1	72.8	72.8	30.042	0.00	0.00	0.000	0.212	82.5	41	56.4	82.1	1405	1	100.0	60
10/16/18	6:00 a	70.6	70.6	70.0	97	69.7	0.0	SSW	0.00	4.0	S	70.6	73.6	73.6	30.065	0.00	0.00	0.000	0.233	82.3	41	56.2	81.9	1405	1	100.0	60
10/16/18	7:00 a	68.6	71.0	68.6	87	64.6	5.0	N	5.00	21.0	N	68.6	70.4	70.4	30.087	0.00	0.00	0.000	0.150	81.5	40	54.8	80.7	1405	1	100.0	60
10/16/18	8:00 a	67.6	68.6	67.6	82	61.9	5.0	NNE	5.00	20.0	NE	67.6	68.9	68.9	30.128	0.00	0.00	0.000	0.108	81.8	41	55.8	81.2	1405	1	100.0	60
10/16/18	9:00 a	67.2	67.6	67.2	76	59.4	6.0	NNE	6.00	21.0	NNE	67.2	68.0	68.0	30.153	0.00	0.00	0.000	0.092	82.2	41	56.2	81.7	1405	1	100.0	60
10/16/18	10:00 a	66.7	67.2	66.7	75	58.5	4.0	NNE	4.00	19.0	NE	66.7	67.3	67.3	30.167	0.00	0.00	0.000	0.071	82.5	41	56.4	82.1	1405	1	100.0	60
10/16/18	11:00 a	66.5	67.3	66.5	77	59.1	6.0	NNE	6.00	22.0	WNW	66.5	67.3	67.3	30.179	0.00	0.00	0.000	0.063	81.5	38	53.4	80.4	1405	1	100.0	60
10/16/18	12:00 p	66.1	66.6	65.8	74	57.6	4.0	NNE	4.00	21.0	NNE	66.1	66.6	66.6	30.177	0.00	0.00	0.000	0.046	82.4	40	55.7	81.9	1405	1	100.0	60
10/16/18	1:00 p	65.6	66.1	65.4	72	56.3	0.0	NNE	0.00	15.0	NNE	65.6	65.8	65.8	30.158	0.00	0.00	0.000	0.025	82.7	40	55.9	82.3	1405	1	100.0	60
10/16/18	2:00 p	64.7	65.6	64.7	73	55.8	0.0	NNE	0.00	17.0	NNE	64.7	64.8	64.8	30.120	0.00	0.00	0.013	0.000	83.1	40	56.3	82.9	1405	1	100.0	60
10/16/18	3:00 p	64.9	65.2	64.6	74	56.4	0.0	NE	0.00	7.0	NE	64.9	65.1	65.1	30.115	0.00	0.00	0.004	0.000	83.4	40	56.5	83.3	1405	1	100.0	60
10/16/18	4:00 p	65.1	65.3	64.9	73	56.2	0.0	NNE	0.00	7.0	NNE	65.1	65.3	65.3	30.112	0.00	0.00	0.000	0.004	82.4	37	53.5	81.4	1405	1	100.0	60
10/16/18	5:00 p	63.8	65.1	63.7	74	55.4	0.0	N	0.00	10.0	NNE	63.8	63.8	63.8	30.115	0.00	0.00	0.050	0.000	82.7	39	55.2	82.1	1404	1	100.0	60
10/16/18	6:00 p	63.3	63.7	63.3	73	54.5	0.0	NE	0.00	6.0	NE	63.3	63.2	63.2	30.118	0.00	0.00	0.071	0.000	82.6	40	55.8	82.1	1405	1	100.0	60
10/16/18	7:00 p	63.0	63.3	63.0	74	54.6	0.0	N	0.00	7.0	N	63.0	62.9	62.9	30.117	0.00	0.00	0.083	0.000	82.1	40	55.4	81.4	1406	1	100.0	60
10/16/18	8:00 p	62.9	63.0	62.8	77	55.6	0.0	---	0.00	0.0	---	62.9	63.0	63.0	30.100	0.00	0.00	0.087	0.000	81.8	40	55.1	81.0	1404	1	100.0	60
10/16/18	9:00 p	63.1	63.1	62.8	76	55.4	0.0	---	0.00	0.0	---	63.1	63.1	63.1	30.109	0.00	0.00	0.079	0.000	81.4	41	55.4	80.6	1405	1	100.0	60
10/16/18	10:00 p	63.0	63.2	63.0	81	57.1	0.0	NNE	0.00	4.0	NNE	63.0	63.3	63.3	30.102	0.00	0.00	0.083	0.000	81.2	41	55.3	80.4	1405	1	100.0	60
10/16/18	11:00 p	63.0	63.0	62.9	83	57.8	0.0	---	0.00	0.0	---	63.0	63.4	63.4	30.097	0.00	0.00	0.083	0.000	81.0	41	55.1	80.1	1405	1	100.0	60
10/17/18	12:00 a	63.0	63.0	62.9	87	59.1	0.0	---	0.00	0.0	---	63.0	63.6	63.6	30.080	0.00	0.00	0.083	0.000	80.7	42	55.5	79.9	1405	1	100.0	60

WEDNESDAY		Temp	Hi	Low	Out	Dew	Wind	Wind	Wind	Hi	Hi	Wind	Heat	THW			Rain	Heat	Cool	In 	In	In 	In 	Wind	Wind	ISS 	Arc.
Date		Time	Out	Temp	Temp	Hum	Pt.	Speed	Dir	Run	Speed	Dir	Chill	Index	Index	Bar  	Rain	Rate	D-D 	D-D 	Temp	Hum	Dew	Heat	Samp	Tx 	Recept	Int.
10/17/18	1:00 a	63.2	63.2	62.9	88	59.6	0.0	---	0.00	0.0	---	63.2	63.8	63.8	30.078	0.00	0.00	0.075	0.000	79.9	42	54.8	79.2	1404	1	100.0	60
10/17/18	2:00 a	63.1	63.3	63.0	92	60.7	0.0	---	0.00	0.0	---	63.1	63.9	63.9	30.069	0.01	0.00	0.079	0.000	79.6	43	55.1	79.0	1405	1	100.0	60
10/17/18	3:00 a	62.7	63.0	62.7	94	60.9	0.0	---	0.00	0.0	---	62.7	63.4	63.4	30.037	0.01	0.00	0.096	0.000	79.3	43	54.9	78.8	1405	1	100.0	60
10/17/18	4:00 a	62.7	62.8	62.7	96	61.5	0.0	---	0.00	0.0	---	62.7	63.5	63.5	30.029	0.04	0.07	0.096	0.000	79.0	43	54.6	78.5	1404	1	100.0	60
10/17/18	5:00 a	62.9	62.9	62.7	97	62.0	0.0	---	0.00	0.0	---	62.9	63.8	63.8	30.032	0.03	0.00	0.087	0.000	78.9	43	54.5	78.4	1405	1	100.0	60
10/17/18	6:00 a	63.2	63.2	62.9	98	62.6	0.0	---	0.00	0.0	---	63.2	64.1	64.1	30.030	0.04	0.06	0.075	0.000	79.3	43	54.9	78.8	1406	1	100.0	60
10/17/18	7:00 a	63.5	63.5	63.2	99	63.2	0.0	---	0.00	0.0	---	63.5	64.5	64.5	30.036	0.00	0.00	0.063	0.000	79.2	43	54.8	78.7	1404	1	100.0	60
10/17/18	8:00 a	64.1	64.1	63.5	99	63.8	0.0	---	0.00	0.0	---	64.1	65.2	65.2	30.044	0.00	0.00	0.038	0.000	79.2	43	54.8	78.7	1405	1	100.0	60
10/17/18	9:00 a	64.6	64.6	64.1	99	64.3	0.0	WSW	0.00	4.0	WSW	64.6	65.8	65.8	30.072	0.00	0.00	0.017	0.000	79.8	43	55.3	79.2	1405	1	100.0	60

			Temp	Hi	Low	Out	Dew	Wind	Wind	Wind	Hi	Hi	Wind	Heat	THW			Rain	Heat	Cool	In 	In	In 	In 	Wind	Wind	ISS 	Arc.
Date		Time	Out	Temp	Temp	Hum	Pt.	Speed	Dir	Run	Speed	Dir	Chill	Index	Index	Bar  	Rain	Rate	D-D 	D-D 	Temp	Hum	Dew	Heat	Samp	Tx 	Recept	Int.